Observation data for Aiken on 05/24/2020      Previous  Date  Next       Current Mesonet Observations  Soil Data  Daily Summary Page  Observations in Plain Language
KAI1 240500Z 15012KT 19/11 A2985 RMK A01 T01920109  RH  058%=      5-min Rain = 0
KAI1 240501Z 15012KT 19/11 A2985 RMK A01 T01920109  RH  059%=      5-min Rain = 0
KAI1 240502Z 14012KT 19/11 A2985 RMK A01 T01910109  RH  059%=      5-min Rain = 0
KAI1 240503Z 14012KT 19/11 A2985 RMK A01 T01900109  RH  059%=      5-min Rain = 0
KAI1 240504Z 14012KT 19/11 A2985 RMK A01 T01900110  RH  060%=      5-min Rain = 0
KAI1 240505Z 15012KT 19/11 A2985 RMK A01 T01900110  RH  060%=      5-min Rain = 0
KAI1 240506Z 14011KT 19/11 A2985 RMK A01 T01890110  RH  060%=      5-min Rain = 0
KAI1 240507Z 14012KT 19/11 A2985 RMK A01 T01890110  RH  060%=      5-min Rain = 0
KAI1 240508Z 14013KT 19/11 A2985 RMK A01 T01890110  RH  060%=      5-min Rain = 0
KAI1 240509Z 14013KT 19/11 A2985 RMK A01 T01890110  RH  060%=      5-min Rain = 0
KAI1 240510Z 14013KT 19/11 A2985 RMK A01 T01890110  RH  060%=      5-min Rain = 0
KAI1 240511Z 15011KT 19/11 A2985 RMK A01 T01880111  RH  061%=      5-min Rain = 0
KAI1 240512Z 14011KT 19/11 A2985 RMK A01 T01880111  RH  061%=      5-min Rain = 0
KAI1 240513Z 14012KT 19/11 A2985 RMK A01 T01870111  RH  061%=      5-min Rain = 0
KAI1 240514Z 14011KT 19/11 A2985 RMK A01 T01870110  RH  061%=      5-min Rain = 0
KAI1 240515Z 14012KT 19/11 A2985 RMK A01 T01870110  RH  061%=      5-min Rain = 0
KAI1 240516Z 15012KT 19/11 A2985 RMK A01 T01870110  RH  061%=      5-min Rain = 0
KAI1 240517Z 15011KT 19/11 A2985 RMK A01 T01870110  RH  061%=      5-min Rain = 0
KAI1 240518Z 15012KT 19/11 A2985 RMK A01 T01870110  RH  061%=      5-min Rain = 0
KAI1 240519Z 15011KT 19/11 A2985 RMK A01 T01870111  RH  061%=      5-min Rain = 0
KAI1 240520Z 15011KT 19/11 A2985 RMK A01 T01870111  RH  061%=      5-min Rain = 0
KAI1 240521Z 15010KT 19/11 A2985 RMK A01 T01860111  RH  062%=      5-min Rain = 0
KAI1 240522Z 15010KT 19/11 A2985 RMK A01 T01860112  RH  062%=      5-min Rain = 0
KAI1 240523Z 15010KT 19/11 A2985 RMK A01 T01850112  RH  062%=      5-min Rain = 0
KAI1 240524Z 16010KT 19/11 A2985 RMK A01 T01850111  RH  062%=      5-min Rain = 0
KAI1 240525Z 16010KT 19/11 A2985 RMK A01 T01850112  RH  062%=      5-min Rain = 0
KAI1 240526Z 16011KT 19/11 A2985 RMK A01 T01850112  RH  063%=      5-min Rain = 0
KAI1 240527Z 16011KT 18/11 A2985 RMK A01 T01840112  RH  063%=      5-min Rain = 0
KAI1 240528Z 16011KT 18/11 A2985 RMK A01 T01840113  RH  063%=      5-min Rain = 0
KAI1 240529Z 16012KT 18/11 A2985 RMK A01 T01840113  RH  063%=      5-min Rain = 0
KAI1 240530Z 16011KT 18/11 A2986 RMK A01 T01840113  RH  064%=      5-min Rain = 0
KAI1 240531Z 16011KT 18/11 A2986 RMK A01 T01830114  RH  064%=      5-min Rain = 0
KAI1 240532Z 16012KT 18/11 A2986 RMK A01 T01830113  RH  064%=      5-min Rain = 0
KAI1 240533Z 17011KT 18/11 A2986 RMK A01 T01830113  RH  064%=      5-min Rain = 0
KAI1 240534Z 17011KT 18/11 A2986 RMK A01 T01830114  RH  064%=      5-min Rain = 0
KAI1 240535Z 17011KT 18/11 A2986 RMK A01 T01830114  RH  064%=      5-min Rain = 0
KAI1 240536Z 17011KT 18/11 A2986 RMK A01 T01820114  RH  064%=      5-min Rain = 0
KAI1 240537Z 16011KT 18/11 A2986 RMK A01 T01820114  RH  064%=      5-min Rain = 0
KAI1 240538Z 16011KT 18/11 A2986 RMK A01 T01820113  RH  064%=      5-min Rain = 0
KAI1 240539Z 16011KT 18/11 A2985 RMK A01 T01820112  RH  064%=      5-min Rain = 0
KAI1 240540Z 15012KT 18/11 A2985 RMK A01 T01820112  RH  064%=      5-min Rain = 0
KAI1 240541Z 15011KT 18/11 A2986 RMK A01 T01820112  RH  064%=      5-min Rain = 0
KAI1 240542Z 16010KT 18/11 A2986 RMK A01 T01820113  RH  064%=      5-min Rain = 0
KAI1 240543Z 15010KT 18/11 A2986 RMK A01 T01820113  RH  064%=      5-min Rain = 0
KAI1 240544Z 15010KT 18/11 A2986 RMK A01 T01820114  RH  064%=      5-min Rain = 0
KAI1 240545Z 16010KT 18/11 A2986 RMK A01 T01820114  RH  065%=      5-min Rain = 0
KAI1 240546Z 16011KT 18/11 A2986 RMK A01 T01810114  RH  065%=      5-min Rain = 0
KAI1 240547Z 17010KT 18/11 A2986 RMK A01 T01810114  RH  065%=      5-min Rain = 0
KAI1 240548Z 17009KT 18/11 A2986 RMK A01 T01810114  RH  065%=      5-min Rain = 0
KAI1 240549Z 18010KT 18/11 A2986 RMK A01 T01810114  RH  065%=      5-min Rain = 0
KAI1 240550Z 18009KT 18/11 A2986 RMK A01 T01810114  RH  065%=      5-min Rain = 0
KAI1 240551Z 19010KT 18/11 A2986 RMK A01 T01810114  RH  065%=      5-min Rain = 0
KAI1 240552Z 19010KT 18/12 A2986 RMK A01 T01800115  RH  066%=      5-min Rain = 0
KAI1 240553Z 19009KT 18/12 A2986 RMK A01 T01790116  RH  067%=      5-min Rain = 0
KAI1 240554Z 17009KT 18/12 A2986 RMK A01 T01780116  RH  067%=      5-min Rain = 0
KAI1 240555Z 16010KT 18/12 A2986 RMK A01 T01770116  RH  067%=      5-min Rain = 0
KAI1 240556Z 16009KT 18/12 A2986 RMK A01 T01770116  RH  067%=      5-min Rain = 0
KAI1 240557Z 15009KT 18/12 A2986 RMK A01 T01770116  RH  067%=      5-min Rain = 0
KAI1 240558Z 15010KT 18/12 A2986 RMK A01 T01770116  RH  067%=      5-min Rain = 0
KAI1 240559Z 15011KT 18/12 A2986 RMK A01 T01780116  RH  067%=      5-min Rain = 0
KAI1 240600Z 15010KT 18/12 A2986 RMK A01 T01780115  RH  067%=      5-min Rain = 0
KAI1 240601Z 15011KT 18/12 A2986 RMK A01 T01790115  RH  066%=      5-min Rain = 0
KAI1 240602Z 16011KT 18/12 A2986 RMK A01 T01790115  RH  066%=      5-min Rain = 0
KAI1 240603Z 16010KT 18/12 A2986 RMK A01 T01800115  RH  066%=      5-min Rain = 0
KAI1 240604Z 16010KT 18/12 A2986 RMK A01 T01800116  RH  066%=      5-min Rain = 0
KAI1 240605Z 15009KT 18/12 A2986 RMK A01 T01800117  RH  066%=      5-min Rain = 0
KAI1 240606Z 16010KT 18/12 A2986 RMK A01 T01800117  RH  067%=      5-min Rain = 0
KAI1 240607Z 17009KT 18/12 A2986 RMK A01 T01800117  RH  067%=      5-min Rain = 0
KAI1 240608Z 19010KT 18/12 A2987 RMK A01 T01790117  RH  067%=      5-min Rain = 0
KAI1 240609Z 20009KT 18/12 A2987 RMK A01 T01790117  RH  067%=      5-min Rain = 0
KAI1 240610Z 21010KT 18/12 A2987 RMK A01 T01780118  RH  068%=      5-min Rain = 0
KAI1 240611Z 20010KT 18/12 A2987 RMK A01 T01770118  RH  068%=      5-min Rain = 0
KAI1 240612Z 18008KT 18/12 A2987 RMK A01 T01750118  RH  069%=      5-min Rain = 0
KAI1 240613Z 17008KT 18/12 A2986 RMK A01 T01750118  RH  069%=      5-min Rain = 0
KAI1 240614Z 16009KT 18/12 A2986 RMK A01 T01750118  RH  069%=      5-min Rain = 0
KAI1 240615Z 16009KT 18/12 A2986 RMK A01 T01750118  RH  069%=      5-min Rain = 0
KAI1 240616Z 16009KT 18/12 A2986 RMK A01 T01750118  RH  069%=      5-min Rain = 0
KAI1 240617Z 16009KT 18/12 A2986 RMK A01 T01750118  RH  069%=      5-min Rain = 0
KAI1 240618Z 16010KT 18/12 A2986 RMK A01 T01760118  RH  069%=      5-min Rain = 0
KAI1 240619Z 17011KT 18/12 A2986 RMK A01 T01770118  RH  068%=      5-min Rain = 0
KAI1 240620Z 17011KT 18/12 A2987 RMK A01 T01770118  RH  068%=      5-min Rain = 0
KAI1 240621Z 16011KT 18/12 A2987 RMK A01 T01770117  RH  068%=      5-min Rain = 0
KAI1 240622Z 17011KT 18/12 A2986 RMK A01 T01770118  RH  068%=      5-min Rain = 0
KAI1 240623Z 17011KT 18/12 A2986 RMK A01 T01770118  RH  068%=      5-min Rain = 0
KAI1 240624Z 16012KT 18/12 A2986 RMK A01 T01770118  RH  068%=      5-min Rain = 0
KAI1 240625Z 16013KT 18/12 A2986 RMK A01 T01770117  RH  068%=      5-min Rain = 0
KAI1 240626Z 16013KT 18/12 A2986 RMK A01 T01780117  RH  068%=      5-min Rain = 0
KAI1 240627Z 16014KT 18/12 A2986 RMK A01 T01780117  RH  068%=      5-min Rain = 0
KAI1 240628Z 17013KT 18/12 A2986 RMK A01 T01780117  RH  067%=      5-min Rain = 0
KAI1 240629Z 18013KT 18/12 A2986 RMK A01 T01790118  RH  067%=      5-min Rain = 0
KAI1 240630Z 18013KT 18/12 A2987 RMK A01 T01790118  RH  067%=      5-min Rain = 0
KAI1 240631Z 18011KT 18/12 A2987 RMK A01 T01790118  RH  067%=      5-min Rain = 0
KAI1 240632Z 19012KT 18/12 A2987 RMK A01 T01790119  RH  068%=      5-min Rain = 0
KAI1 240633Z 19011KT 18/12 A2987 RMK A01 T01780119  RH  068%=      5-min Rain = 0
KAI1 240634Z 18011KT 18/12 A2987 RMK A01 T01770119  RH  069%=      5-min Rain = 0
KAI1 240635Z 17011KT 18/12 A2986 RMK A01 T01760120  RH  069%=      5-min Rain = 0
KAI1 240636Z 17011KT 18/12 A2986 RMK A01 T01760120  RH  069%=      5-min Rain = 0
KAI1 240637Z 17011KT 18/12 A2986 RMK A01 T01760119  RH  069%=      5-min Rain = 0
KAI1 240638Z 17011KT 18/12 A2986 RMK A01 T01760119  RH  069%=      5-min Rain = 0
KAI1 240639Z 17011KT 18/12 A2987 RMK A01 T01760120  RH  069%=      5-min Rain = 0
KAI1 240640Z 17010KT 18/12 A2987 RMK A01 T01760120  RH  070%=      5-min Rain = 0
KAI1 240641Z 17010KT 18/12 A2986 RMK A01 T01760119  RH  069%=      5-min Rain = 0
KAI1 240642Z 17011KT 18/12 A2986 RMK A01 T01760120  RH  070%=      5-min Rain = 0
KAI1 240643Z 17010KT 18/12 A2987 RMK A01 T01760120  RH  070%=      5-min Rain = 0
KAI1 240644Z 18011KT 18/12 A2987 RMK A01 T01760120  RH  070%=      5-min Rain = 0
KAI1 240645Z 18012KT 18/12 A2987 RMK A01 T01760120  RH  070%=      5-min Rain = 0
KAI1 240646Z 18011KT 18/12 A2987 RMK A01 T01760121  RH  070%=      5-min Rain = 0
KAI1 240647Z 17011KT 18/12 A2987 RMK A01 T01760121  RH  070%=      5-min Rain = 0
KAI1 240648Z 16011KT 18/12 A2987 RMK A01 T01760121  RH  070%=      5-min Rain = 0
KAI1 240649Z 16012KT 18/12 A2987 RMK A01 T01760122  RH  070%=      5-min Rain = 0
KAI1 240650Z 16011KT 18/12 A2987 RMK A01 T01760121  RH  070%=      5-min Rain = 0
KAI1 240651Z 16012KT 18/12 A2987 RMK A01 T01760121  RH  070%=      5-min Rain = 0
KAI1 240652Z 16011KT 18/12 A2987 RMK A01 T01750121  RH  070%=      5-min Rain = 0
KAI1 240653Z 17012KT 18/12 A2987 RMK A01 T01750122  RH  071%=      5-min Rain = 0
KAI1 240654Z 17012KT 18/12 A2987 RMK A01 T01750122  RH  071%=      5-min Rain = 0
KAI1 240655Z 17012KT 18/12 A2987 RMK A01 T01750122  RH  071%=      5-min Rain = 0
KAI1 240656Z 17011KT 18/12 A2987 RMK A01 T01750123  RH  071%=      5-min Rain = 0
KAI1 240657Z 16011KT 17/12 A2987 RMK A01 T01740123  RH  072%=      5-min Rain = 0
KAI1 240658Z 15010KT 17/12 A2987 RMK A01 T01740123  RH  072%=      5-min Rain = 0
KAI1 240659Z 15011KT 17/12 A2987 RMK A01 T01730123  RH  072%=      5-min Rain = 0
KAI1 240700Z 15011KT 17/12 A2987 RMK A01 T01730123  RH  073%=      5-min Rain = 0
KAI1 240701Z 15012KT 17/12 A2987 RMK A01 T01730124  RH  073%=      5-min Rain = 0
KAI1 240702Z 15012KT 17/12 A2987 RMK A01 T01720124  RH  073%=      5-min Rain = 0
KAI1 240703Z 15012KT 17/12 A2987 RMK A01 T01720124  RH  074%=      5-min Rain = 0
KAI1 240704Z 16012KT 17/12 A2987 RMK A01 T01710124  RH  074%=      5-min Rain = 0
KAI1 240705Z 16012KT 17/13 A2987 RMK A01 T01710125  RH  074%=      5-min Rain = 0
KAI1 240706Z 16010KT 17/13 A2987 RMK A01 T01710125  RH  074%=      5-min Rain = 0
KAI1 240707Z 17012KT 17/13 A2987 RMK A01 T01710125  RH  074%=      5-min Rain = 0
KAI1 240708Z 17010KT 17/13 A2987 RMK A01 T01710125  RH  075%=      5-min Rain = 0
KAI1 240709Z 17010KT 17/13 A2987 RMK A01 T01700126  RH  075%=      5-min Rain = 0
KAI1 240710Z 17009KT 17/13 A2987 RMK A01 T01700126  RH  075%=      5-min Rain = 0
KAI1 240711Z 16009KT 17/13 A2987 RMK A01 T01690126  RH  076%=      5-min Rain = 0
KAI1 240712Z 16009KT 17/13 A2987 RMK A01 T01690127  RH  076%=      5-min Rain = 0
KAI1 240713Z 16009KT 17/13 A2987 RMK A01 T01690127  RH  076%=      5-min Rain = 0
KAI1 240714Z 16010KT 17/13 A2987 RMK A01 T01680127  RH  077%=      5-min Rain = 0
KAI1 240715Z 16011KT 17/13 A2987 RMK A01 T01680128  RH  077%=      5-min Rain = 0
KAI1 240716Z 16013KT 17/13 A2987 RMK A01 T01680129  RH  078%=      5-min Rain = 0
KAI1 240717Z 16014KT 17/13 A2987 RMK A01 T01680130  RH  078%=      5-min Rain = 0
KAI1 240718Z 16014KT 17/13 A2987 RMK A01 T01670131  RH  079%=      5-min Rain = 0
KAI1 240719Z 17015KT 17/13 A2987 RMK A01 T01670131  RH  079%=      5-min Rain = 0
KAI1 240720Z 17015KT 17/13 A2987 RMK A01 T01670132  RH  080%=      5-min Rain = 0
KAI1 240721Z 17014KT 17/13 A2987 RMK A01 T01670133  RH  080%=      5-min Rain = 0
KAI1 240722Z 17014KT 17/13 A2987 RMK A01 T01670133  RH  080%=      5-min Rain = 0
KAI1 240723Z 17012KT 17/13 A2987 RMK A01 T01670134  RH  081%=      5-min Rain = 0
KAI1 240724Z 17010KT 17/13 A2987 RMK A01 T01660134  RH  081%=      5-min Rain = 0
KAI1 240725Z 17012KT 17/13 A2987 RMK A01 T01660134  RH  082%=      5-min Rain = 0
KAI1 240726Z 18012KT 17/14 A2988 RMK A01 T01650135  RH  082%=      5-min Rain = 0
KAI1 240727Z 18011KT 17/14 A2988 RMK A01 T01650135  RH  082%=      5-min Rain = 0
KAI1 240728Z 17009KT 16/14 A2988 RMK A01 T01640135  RH  083%=      5-min Rain = 0
KAI1 240729Z 17009KT 16/14 A2988 RMK A01 T01640135  RH  083%=      5-min Rain = 0
KAI1 240730Z 17009KT 16/14 A2988 RMK A01 T01630135  RH  083%=      5-min Rain = 0
KAI1 240731Z 17009KT 16/14 A2988 RMK A01 T01630135  RH  084%=      5-min Rain = 0
KAI1 240732Z 17009KT 16/14 A2988 RMK A01 T01630136  RH  084%=      5-min Rain = 0
KAI1 240733Z 18008KT 16/14 A2988 RMK A01 T01620135  RH  084%=      5-min Rain = 0
KAI1 240734Z 17008KT 16/14 A2988 RMK A01 T01620136  RH  084%=      5-min Rain = 0
KAI1 240735Z 17010KT 16/14 A2988 RMK A01 T01610135  RH  085%=      5-min Rain = 0
KAI1 240736Z 17009KT 16/14 A2988 RMK A01 T01610136  RH  085%=      5-min Rain = 0
KAI1 240737Z 17009KT 16/14 A2988 RMK A01 T01610136  RH  085%=      5-min Rain = 0
KAI1 240738Z 17010KT 16/14 A2988 RMK A01 T01610136  RH  085%=      5-min Rain = 0
KAI1 240739Z 16010KT 16/14 A2988 RMK A01 T01600136  RH  086%=      5-min Rain = 0
KAI1 240740Z 17010KT 16/14 A2988 RMK A01 T01600136  RH  086%=      5-min Rain = 0
KAI1 240741Z 17011KT 16/14 A2988 RMK A01 T01600137  RH  086%=      5-min Rain = 0
KAI1 240742Z 17011KT 16/14 A2988 RMK A01 T01590137  RH  086%=      5-min Rain = 0
KAI1 240743Z 17011KT 16/14 A2987 RMK A01 T01600137  RH  086%=      5-min Rain = 0
KAI1 240744Z 18011KT 16/14 A2987 RMK A01 T01590137  RH  086%=      5-min Rain = 0
KAI1 240745Z 18010KT 16/14 A2987 RMK A01 T01590136  RH  087%=      5-min Rain = 0
KAI1 240746Z 17010KT 16/14 A2987 RMK A01 T01590137  RH  087%=      5-min Rain = 0
KAI1 240747Z 17009KT 16/14 A2987 RMK A01 T01580137  RH  087%=      5-min Rain = 0
KAI1 240748Z 17010KT 16/14 A2987 RMK A01 T01580137  RH  087%=      5-min Rain = 0
KAI1 240749Z 17011KT 16/14 A2987 RMK A01 T01570137  RH  088%=      5-min Rain = 0
KAI1 240750Z 17009KT 16/14 A2987 RMK A01 T01570137  RH  088%=      5-min Rain = 0
KAI1 240751Z 17011KT 16/14 A2987 RMK A01 T01570137  RH  088%=      5-min Rain = 0
KAI1 240752Z 17011KT 16/14 A2987 RMK A01 T01560137  RH  088%=      5-min Rain = 0
KAI1 240753Z 17010KT 16/14 A2987 RMK A01 T01560137  RH  088%=      5-min Rain = 0
KAI1 240754Z 17011KT 16/14 A2987 RMK A01 T01560137  RH  088%=      5-min Rain = 0
KAI1 240755Z 17010KT 16/14 A2987 RMK A01 T01550136  RH  088%=      5-min Rain = 0
KAI1 240756Z 17010KT 16/14 A2987 RMK A01 T01550137  RH  089%=      5-min Rain = 0
KAI1 240757Z 17010KT 16/14 A2987 RMK A01 T01550136  RH  089%=      5-min Rain = 0
KAI1 240758Z 17010KT 16/14 A2987 RMK A01 T01550136  RH  089%=      5-min Rain = 0
KAI1 240759Z 17011KT 16/14 A2987 RMK A01 T01550137  RH  089%=      5-min Rain = 0
KAI1 240800Z 17010KT 15/14 A2987 RMK A01 T01540136  RH  089%=      5-min Rain = 0
KAI1 240801Z 17011KT 15/14 A2987 RMK A01 T01540136  RH  089%=      5-min Rain = 0
KAI1 240802Z 17010KT 15/14 A2987 RMK A01 T01540136  RH  089%=      5-min Rain = 0
KAI1 240803Z 17011KT 15/14 A2987 RMK A01 T01540136  RH  089%=      5-min Rain = 0
KAI1 240804Z 17010KT 15/14 A2987 RMK A01 T01540136  RH  089%=      5-min Rain = 0
KAI1 240805Z 16009KT 15/14 A2987 RMK A01 T01540136  RH  089%=      5-min Rain = 0
KAI1 240806Z 16010KT 15/14 A2987 RMK A01 T01540136  RH  089%=      5-min Rain = 0
KAI1 240807Z 17010KT 15/14 A2987 RMK A01 T01540136  RH  089%=      5-min Rain = 0
KAI1 240808Z 17010KT 15/14 A2987 RMK A01 T01540136  RH  089%=      5-min Rain = 0
KAI1 240809Z 17009KT 15/14 A2987 RMK A01 T01540136  RH  089%=      5-min Rain = 0
KAI1 240810Z 17011KT 15/14 A2987 RMK A01 T01530135  RH  089%=      5-min Rain = 0
KAI1 240811Z 17011KT 15/14 A2987 RMK A01 T01530135  RH  089%=      5-min Rain = 0
KAI1 240812Z 17010KT 15/14 A2987 RMK A01 T01530136  RH  089%=      5-min Rain = 0
KAI1 240813Z 17010KT 15/14 A2987 RMK A01 T01530135  RH  089%=      5-min Rain = 0
KAI1 240814Z 17010KT 15/14 A2987 RMK A01 T01520135  RH  089%=      5-min Rain = 0
KAI1 240815Z 17010KT 15/14 A2987 RMK A01 T01530135  RH  089%=      5-min Rain = 0
KAI1 240816Z 17010KT 15/14 A2987 RMK A01 T01520135  RH  089%=      5-min Rain = 0
KAI1 240817Z 17010KT 15/14 A2987 RMK A01 T01520135  RH  089%=      5-min Rain = 0
KAI1 240818Z 17010KT 15/14 A2987 RMK A01 T01520135  RH  089%=      5-min Rain = 0
KAI1 240819Z 17009KT 15/14 A2987 RMK A01 T01520135  RH  089%=      5-min Rain = 0
KAI1 240820Z 17009KT 15/14 A2987 RMK A01 T01520135  RH  090%=      5-min Rain = 0
KAI1 240821Z 17009KT 15/14 A2987 RMK A01 T01520135  RH  090%=      5-min Rain = 0
KAI1 240822Z 17009KT 15/14 A2987 RMK A01 T01510135  RH  090%=      5-min Rain = 0
KAI1 240823Z 17009KT 15/14 A2987 RMK A01 T01510135  RH  090%=      5-min Rain = 0
KAI1 240824Z 17010KT 15/14 A2987 RMK A01 T01510135  RH  090%=      5-min Rain = 0
KAI1 240825Z 18010KT 15/14 A2987 RMK A01 T01510135  RH  090%=      5-min Rain = 0
KAI1 240826Z 17010KT 15/13 A2987 RMK A01 T01510134  RH  090%=      5-min Rain = 0
KAI1 240827Z 17009KT 15/13 A2986 RMK A01 T01500134  RH  090%=      5-min Rain = 0
KAI1 240828Z 17010KT 15/14 A2987 RMK A01 T01510135  RH  090%=      5-min Rain = 0
KAI1 240829Z 17010KT 15/14 A2987 RMK A01 T01500135  RH  090%=      5-min Rain = 0
KAI1 240830Z 18009KT 15/13 A2986 RMK A01 T01500134  RH  090%=      5-min Rain = 0
KAI1 240831Z 18009KT 15/13 A2986 RMK A01 T01500134  RH  090%=      5-min Rain = 0
KAI1 240832Z 18008KT 15/13 A2986 RMK A01 T01500134  RH  090%=      5-min Rain = 0
KAI1 240833Z 18009KT 15/13 A2986 RMK A01 T01490134  RH  090%=      5-min Rain = 0
KAI1 240834Z 18009KT 15/13 A2986 RMK A01 T01490134  RH  091%=      5-min Rain = 0
KAI1 240835Z 18010KT 15/13 A2987 RMK A01 T01490134  RH  091%=      5-min Rain = 0
KAI1 240836Z 17011KT 15/13 A2987 RMK A01 T01490134  RH  091%=      5-min Rain = 0
KAI1 240837Z 17010KT 15/13 A2987 RMK A01 T01490134  RH  091%=      5-min Rain = 0
KAI1 240838Z 17010KT 15/13 A2987 RMK A01 T01490134  RH  091%=      5-min Rain = 0
KAI1 240839Z 17010KT 15/13 A2987 RMK A01 T01490134  RH  091%=      5-min Rain = 0
KAI1 240840Z 17010KT 15/13 A2987 RMK A01 T01490134  RH  091%=      5-min Rain = 0
KAI1 240841Z 17010KT 15/13 A2986 RMK A01 T01480133  RH  091%=      5-min Rain = 0
KAI1 240842Z 17010KT 15/13 A2987 RMK A01 T01490134  RH  091%=      5-min Rain = 0
KAI1 240843Z 17009KT 15/13 A2987 RMK A01 T01490134  RH  091%=      5-min Rain = 0
KAI1 240844Z 17009KT 15/13 A2987 RMK A01 T01490134  RH  091%=      5-min Rain = 0
KAI1 240845Z 17009KT 15/13 A2987 RMK A01 T01480133  RH  091%=      5-min Rain = 0
KAI1 240846Z 17010KT 15/13 A2987 RMK A01 T01480133  RH  091%=      5-min Rain = 0
KAI1 240847Z 17010KT 15/13 A2987 RMK A01 T01480133  RH  091%=      5-min Rain = 0
KAI1 240848Z 17009KT 15/13 A2987 RMK A01 T01480133  RH  091%=      5-min Rain = 0
KAI1 240849Z 17008KT 15/13 A2986 RMK A01 T01470133  RH  091%=      5-min Rain = 0
KAI1 240850Z 17009KT 15/13 A2986 RMK A01 T01480133  RH  091%=      5-min Rain = 0
KAI1 240851Z 17009KT 15/13 A2986 RMK A01 T01470133  RH  091%=      5-min Rain = 0
KAI1 240852Z 17009KT 15/13 A2986 RMK A01 T01470133  RH  091%=      5-min Rain = 0
KAI1 240853Z 17009KT 15/13 A2986 RMK A01 T01470132  RH  091%=      5-min Rain = 0
KAI1 240854Z 17009KT 15/13 A2987 RMK A01 T01470132  RH  091%=      5-min Rain = 0
KAI1 240855Z 17009KT 15/13 A2987 RMK A01 T01460132  RH  091%=      5-min Rain = 0
KAI1 240856Z 17009KT 15/13 A2987 RMK A01 T01470132  RH  091%=      5-min Rain = 0
KAI1 240857Z 17009KT 15/13 A2987 RMK A01 T01470132  RH  091%=      5-min Rain = 0
KAI1 240858Z 17008KT 15/13 A2987 RMK A01 T01470132  RH  091%=      5-min Rain = 0
KAI1 240859Z 17009KT 15/13 A2987 RMK A01 T01470132  RH  091%=      5-min Rain = 0
KAI1 240900Z 17009KT 15/13 A2987 RMK A01 T01470132  RH  091%=      5-min Rain = 0
KAI1 240901Z 17010KT 15/13 A2987 RMK A01 T01470132  RH  091%=      5-min Rain = 0
KAI1 240902Z 16009KT 15/13 A2987 RMK A01 T01470132  RH  091%=      5-min Rain = 0
KAI1 240903Z 17009KT 15/13 A2987 RMK A01 T01470132  RH  091%=      5-min Rain = 0
KAI1 240904Z 17009KT 15/13 A2987 RMK A01 T01470132  RH  091%=      5-min Rain = 0
KAI1 240905Z 16008KT 15/13 A2987 RMK A01 T01470132  RH  091%=      5-min Rain = 0
KAI1 240906Z 16009KT 15/13 A2987 RMK A01 T01460132  RH  091%=      5-min Rain = 0
KAI1 240907Z 16010KT 15/13 A2987 RMK A01 T01470132  RH  091%=      5-min Rain = 0
KAI1 240908Z 16009KT 15/13 A2987 RMK A01 T01460131  RH  091%=      5-min Rain = 0
KAI1 240909Z 16009KT 15/13 A2987 RMK A01 T01460131  RH  091%=      5-min Rain = 0
KAI1 240910Z 16009KT 15/13 A2987 RMK A01 T01460131  RH  091%=      5-min Rain = 0
KAI1 240911Z 16009KT 15/13 A2987 RMK A01 T01460130  RH  091%=      5-min Rain = 0
KAI1 240912Z 16009KT 15/13 A2987 RMK A01 T01460130  RH  091%=      5-min Rain = 0
KAI1 240913Z 16009KT 15/13 A2987 RMK A01 T01460131  RH  091%=      5-min Rain = 0
KAI1 240914Z 16009KT 15/13 A2987 RMK A01 T01460130  RH  090%=      5-min Rain = 0
KAI1 240915Z 16009KT 15/13 A2987 RMK A01 T01460130  RH  090%=      5-min Rain = 0
KAI1 240916Z 16008KT 15/13 A2987 RMK A01 T01460130  RH  090%=      5-min Rain = 0
KAI1 240917Z 16008KT 15/13 A2987 RMK A01 T01460130  RH  090%=      5-min Rain = 0
KAI1 240918Z 15008KT 15/13 A2987 RMK A01 T01450130  RH  091%=      5-min Rain = 0
KAI1 240919Z 16008KT 15/13 A2987 RMK A01 T01450130  RH  091%=      5-min Rain = 0
KAI1 240920Z 15007KT 15/13 A2987 RMK A01 T01450130  RH  091%=      5-min Rain = 0
KAI1 240921Z 15007KT 15/13 A2987 RMK A01 T01450130  RH  091%=      5-min Rain = 0
KAI1 240922Z 15007KT 14/13 A2987 RMK A01 T01440129  RH  091%=      5-min Rain = 0
KAI1 240923Z 15007KT 14/13 A2987 RMK A01 T01440130  RH  091%=      5-min Rain = 0
KAI1 240924Z 15007KT 14/13 A2987 RMK A01 T01440129  RH  091%=      5-min Rain = 0
KAI1 240925Z 15007KT 14/13 A2987 RMK A01 T01430129  RH  091%=      5-min Rain = 0
KAI1 240926Z 15008KT 14/13 A2987 RMK A01 T01440129  RH  091%=      5-min Rain = 0
KAI1 240927Z 15007KT 14/13 A2987 RMK A01 T01430129  RH  091%=      5-min Rain = 0
KAI1 240928Z 15007KT 14/13 A2987 RMK A01 T01430129  RH  091%=      5-min Rain = 0
KAI1 240929Z 15007KT 14/13 A2987 RMK A01 T01430129  RH  091%=      5-min Rain = 0
KAI1 240930Z 14007KT 14/13 A2987 RMK A01 T01430129  RH  091%=      5-min Rain = 0
KAI1 240931Z 14007KT 14/13 A2987 RMK A01 T01420128  RH  091%=      5-min Rain = 0
KAI1 240932Z 14007KT 14/13 A2987 RMK A01 T01420128  RH  091%=      5-min Rain = 0
KAI1 240933Z 14007KT 14/13 A2987 RMK A01 T01420128  RH  091%=      5-min Rain = 0
KAI1 240934Z 14007KT 14/13 A2987 RMK A01 T01410128  RH  091%=      5-min Rain = 0
KAI1 240935Z 14007KT 14/13 A2987 RMK A01 T01410127  RH  092%=      5-min Rain = 0
KAI1 240936Z 14008KT 14/13 A2987 RMK A01 T01410127  RH  092%=      5-min Rain = 0
KAI1 240937Z 14009KT 14/13 A2987 RMK A01 T01410127  RH  092%=      5-min Rain = 0
KAI1 240938Z 14008KT 14/13 A2987 RMK A01 T01410127  RH  092%=      5-min Rain = 0
KAI1 240939Z 14008KT 14/13 A2987 RMK A01 T01410127  RH  092%=      5-min Rain = 0
KAI1 240940Z 14008KT 14/13 A2987 RMK A01 T01410127  RH  091%=      5-min Rain = 0
KAI1 240941Z 14008KT 14/13 A2987 RMK A01 T01410127  RH  091%=      5-min Rain = 0
KAI1 240942Z 14008KT 14/13 A2987 RMK A01 T01410127  RH  091%=      5-min Rain = 0
KAI1 240943Z 15008KT 14/13 A2987 RMK A01 T01410127  RH  091%=      5-min Rain = 0
KAI1 240944Z 15008KT 14/13 A2987 RMK A01 T01410127  RH  091%=      5-min Rain = 0
KAI1 240945Z 14008KT 14/13 A2987 RMK A01 T01410127  RH  091%=      5-min Rain = 0
KAI1 240946Z 14008KT 14/13 A2987 RMK A01 T01410127  RH  091%=      5-min Rain = 0
KAI1 240947Z 14008KT 14/13 A2987 RMK A01 T01410127  RH  091%=      5-min Rain = 0
KAI1 240948Z 14008KT 14/13 A2987 RMK A01 T01410127  RH  091%=      5-min Rain = 0
KAI1 240949Z 14008KT 14/13 A2987 RMK A01 T01410127  RH  091%=      5-min Rain = 0
KAI1 240950Z 14008KT 14/13 A2987 RMK A01 T01410127  RH  091%=      5-min Rain = 0
KAI1 240951Z 14009KT 14/13 A2987 RMK A01 T01410127  RH  091%=      5-min Rain = 0
KAI1 240952Z 14008KT 14/13 A2987 RMK A01 T01410127  RH  091%=      5-min Rain = 0
KAI1 240953Z 14007KT 14/13 A2987 RMK A01 T01410127  RH  091%=      5-min Rain = 0
KAI1 240954Z 14007KT 14/13 A2987 RMK A01 T01400127  RH  092%=      5-min Rain = 0
KAI1 240955Z 14007KT 14/13 A2987 RMK A01 T01400127  RH  092%=      5-min Rain = 0
KAI1 240956Z 15007KT 14/13 A2987 RMK A01 T01400127  RH  092%=      5-min Rain = 0
KAI1 240957Z 15007KT 14/13 A2987 RMK A01 T01400126  RH  092%=      5-min Rain = 0
KAI1 240958Z 15007KT 14/13 A2987 RMK A01 T01400126  RH  092%=      5-min Rain = 0
KAI1 240959Z 15008KT 14/13 A2987 RMK A01 T01400126  RH  092%=      5-min Rain = 0
KAI1 241000Z 15008KT 14/13 A2987 RMK A01 T01390126  RH  092%=      5-min Rain = 0
KAI1 241001Z 15007KT 14/13 A2987 RMK A01 T01390126  RH  092%=      5-min Rain = 0
KAI1 241002Z 15008KT 14/13 A2987 RMK A01 T01390126  RH  092%=      5-min Rain = 0
KAI1 241003Z 15008KT 14/13 A2987 RMK A01 T01390126  RH  092%=      5-min Rain = 0
KAI1 241004Z 15007KT 14/13 A2987 RMK A01 T01400126  RH  091%=      5-min Rain = 0
KAI1 241005Z 15008KT 14/13 A2987 RMK A01 T01390126  RH  091%=      5-min Rain = 0
KAI1 241006Z 14009KT 14/13 A2987 RMK A01 T01390125  RH  091%=      5-min Rain = 0
KAI1 241007Z 15008KT 14/13 A2987 RMK A01 T01390125  RH  091%=      5-min Rain = 0
KAI1 241008Z 15008KT 14/13 A2987 RMK A01 T01390125  RH  091%=      5-min Rain = 0
KAI1 241009Z 15008KT 14/13 A2987 RMK A01 T01390125  RH  091%=      5-min Rain = 0
KAI1 241010Z 15007KT 14/13 A2987 RMK A01 T01390125  RH  091%=      5-min Rain = 0
KAI1 241011Z 15007KT 14/13 A2987 RMK A01 T01390125  RH  091%=      5-min Rain = 0
KAI1 241012Z 16007KT 14/13 A2987 RMK A01 T01390125  RH  091%=      5-min Rain = 0
KAI1 241013Z 15006KT 14/13 A2987 RMK A01 T01380125  RH  091%=      5-min Rain = 0
KAI1 241014Z 16006KT 14/13 A2987 RMK A01 T01380125  RH  091%=      5-min Rain = 0
KAI1 241015Z 16007KT 14/13 A2987 RMK A01 T01380125  RH  091%=      5-min Rain = 0
KAI1 241016Z 17006KT 14/12 A2987 RMK A01 T01380124  RH  092%=      5-min Rain = 0
KAI1 241017Z 17007KT 14/12 A2987 RMK A01 T01380124  RH  092%=      5-min Rain = 0
KAI1 241018Z 16007KT 14/12 A2987 RMK A01 T01380124  RH  092%=      5-min Rain = 0
KAI1 241019Z 16008KT 14/12 A2987 RMK A01 T01380124  RH  091%=      5-min Rain = 0
KAI1 241020Z 16008KT 14/12 A2987 RMK A01 T01380124  RH  091%=      5-min Rain = 0
KAI1 241021Z 17008KT 14/12 A2987 RMK A01 T01390124  RH  091%=      5-min Rain = 0
KAI1 241022Z 17008KT 14/12 A2987 RMK A01 T01390124  RH  091%=      5-min Rain = 0
KAI1 241023Z 17008KT 14/12 A2987 RMK A01 T01390124  RH  091%=      5-min Rain = 0
KAI1 241024Z 17008KT 14/12 A2987 RMK A01 T01400124  RH  090%=      5-min Rain = 0
KAI1 241025Z 17008KT 14/12 A2987 RMK A01 T01400124  RH  090%=      5-min Rain = 0
KAI1 241026Z 17009KT 14/12 A2987 RMK A01 T01400124  RH  090%=      5-min Rain = 0
KAI1 241027Z 17009KT 14/12 A2988 RMK A01 T01400124  RH  090%=      5-min Rain = 0
KAI1 241028Z 17010KT 14/12 A2988 RMK A01 T01410124  RH  090%=      5-min Rain = 0
KAI1 241029Z 17010KT 14/12 A2987 RMK A01 T01410124  RH  089%=      5-min Rain = 0
KAI1 241030Z 17009KT 14/12 A2987 RMK A01 T01410124  RH  089%=      5-min Rain = 0
KAI1 241031Z 17009KT 14/12 A2987 RMK A01 T01410123  RH  089%=      5-min Rain = 0
KAI1 241032Z 17010KT 14/12 A2987 RMK A01 T01410123  RH  089%=      5-min Rain = 0
KAI1 241033Z 17010KT 14/12 A2987 RMK A01 T01410123  RH  089%=      5-min Rain = 0
KAI1 241034Z 17010KT 14/12 A2987 RMK A01 T01410123  RH  089%=      5-min Rain = 0
KAI1 241035Z 17010KT 14/12 A2987 RMK A01 T01410123  RH  089%=      5-min Rain = 0
KAI1 241036Z 17010KT 14/12 A2987 RMK A01 T01410122  RH  089%=      5-min Rain = 0
KAI1 241037Z 17010KT 14/12 A2987 RMK A01 T01410122  RH  088%=      5-min Rain = 0
KAI1 241038Z 17009KT 14/12 A2987 RMK A01 T01410122  RH  088%=      5-min Rain = 0
KAI1 241039Z 17011KT 14/12 A2987 RMK A01 T01410122  RH  088%=      5-min Rain = 0
KAI1 241040Z 17010KT 14/12 A2987 RMK A01 T01410122  RH  088%=      5-min Rain = 0
KAI1 241041Z 17009KT 14/12 A2987 RMK A01 T01410122  RH  088%=      5-min Rain = 0
KAI1 241042Z 17010KT 14/12 A2987 RMK A01 T01410122  RH  088%=      5-min Rain = 0
KAI1 241043Z 17010KT 14/12 A2987 RMK A01 T01410122  RH  088%=      5-min Rain = 0
KAI1 241044Z 17010KT 14/12 A2987 RMK A01 T01410122  RH  088%=      5-min Rain = 0
KAI1 241045Z 17009KT 14/12 A2987 RMK A01 T01410122  RH  088%=      5-min Rain = 0
KAI1 241046Z 17010KT 14/12 A2987 RMK A01 T01410122  RH  088%=      5-min Rain = 0
KAI1 241047Z 17010KT 14/12 A2987 RMK A01 T01410122  RH  088%=      5-min Rain = 0
KAI1 241048Z 17010KT 14/12 A2987 RMK A01 T01410122  RH  088%=      5-min Rain = 0
KAI1 241049Z 17010KT 14/12 A2987 RMK A01 T01410121  RH  088%=      5-min Rain = 0
KAI1 241050Z 17010KT 14/12 A2987 RMK A01 T01410121  RH  088%=      5-min Rain = 0
KAI1 241051Z 18011KT 14/12 A2987 RMK A01 T01410121  RH  088%=      5-min Rain = 0
KAI1 241052Z 17011KT 14/12 A2987 RMK A01 T01410121  RH  088%=      5-min Rain = 0
KAI1 241053Z 18011KT 14/12 A2987 RMK A01 T01410121  RH  088%=      5-min Rain = 0
KAI1 241054Z 18010KT 14/12 A2987 RMK A01 T01420121  RH  088%=      5-min Rain = 0
KAI1 241055Z 18010KT 14/12 A2987 RMK A01 T01410121  RH  088%=      5-min Rain = 0
KAI1 241056Z 18011KT 14/12 A2987 RMK A01 T01410121  RH  088%=      5-min Rain = 0
KAI1 241057Z 18011KT 14/12 A2987 RMK A01 T01410121  RH  088%=      5-min Rain = 0
KAI1 241058Z 17011KT 14/12 A2987 RMK A01 T01410121  RH  088%=      5-min Rain = 0
KAI1 241059Z 17011KT 14/12 A2987 RMK A01 T01410121  RH  087%=      5-min Rain = 0
KAI1 241100Z 18011KT 14/12 A2987 RMK A01 T01420121  RH  087%=      5-min Rain = 0
KAI1 241101Z 17011KT 14/12 A2987 RMK A01 T01420121  RH  087%=      5-min Rain = 0
KAI1 241102Z 17011KT 14/12 A2987 RMK A01 T01420121  RH  087%=      5-min Rain = 0
KAI1 241103Z 17012KT 14/12 A2987 RMK A01 T01420121  RH  087%=      5-min Rain = 0
KAI1 241104Z 17012KT 14/12 A2987 RMK A01 T01430120  RH  086%=      5-min Rain = 0
KAI1 241105Z 17011KT 14/12 A2987 RMK A01 T01430120  RH  086%=      5-min Rain = 0
KAI1 241106Z 18012KT 14/12 A2987 RMK A01 T01440120  RH  086%=      5-min Rain = 0
KAI1 241107Z 17012KT 14/12 A2987 RMK A01 T01440120  RH  086%=      5-min Rain = 0
KAI1 241108Z 17012KT 14/12 A2987 RMK A01 T01440120  RH  085%=      5-min Rain = 0
KAI1 241109Z 17013KT 15/12 A2987 RMK A01 T01450120  RH  085%=      5-min Rain = 0
KAI1 241110Z 18012KT 15/12 A2987 RMK A01 T01460120  RH  084%=      5-min Rain = 0
KAI1 241111Z 17013KT 15/12 A2987 RMK A01 T01460120  RH  084%=      5-min Rain = 0
KAI1 241112Z 17012KT 15/12 A2987 RMK A01 T01470119  RH  084%=      5-min Rain = 0
KAI1 241113Z 17011KT 15/12 A2987 RMK A01 T01470119  RH  083%=      5-min Rain = 0
KAI1 241114Z 17011KT 15/12 A2987 RMK A01 T01470120  RH  083%=      5-min Rain = 0
KAI1 241115Z 17012KT 15/12 A2986 RMK A01 T01470119  RH  083%=      5-min Rain = 0
KAI1 241116Z 17012KT 15/12 A2987 RMK A01 T01470119  RH  083%=      5-min Rain = 0
KAI1 241117Z 17012KT 15/12 A2987 RMK A01 T01480119  RH  083%=      5-min Rain = 0
KAI1 241118Z 17011KT 15/12 A2986 RMK A01 T01480119  RH  083%=      5-min Rain = 0
KAI1 241119Z 17012KT 15/12 A2986 RMK A01 T01480120  RH  083%=      5-min Rain = 0
KAI1 241120Z 17012KT 15/12 A2986 RMK A01 T01470119  RH  083%=      5-min Rain = 0
KAI1 241121Z 17012KT 15/12 A2986 RMK A01 T01470119  RH  083%=      5-min Rain = 0
KAI1 241122Z 17012KT 15/12 A2986 RMK A01 T01470120  RH  083%=      5-min Rain = 0
KAI1 241123Z 17012KT 15/12 A2986 RMK A01 T01470120  RH  084%=      5-min Rain = 0
KAI1 241124Z 17011KT 15/12 A2986 RMK A01 T01460120  RH  084%=      5-min Rain = 0
KAI1 241125Z 17011KT 15/12 A2986 RMK A01 T01460119  RH  084%=      5-min Rain = 0
KAI1 241126Z 17011KT 15/12 A2986 RMK A01 T01450120  RH  085%=      5-min Rain = 0
KAI1 241127Z 17011KT 15/12 A2986 RMK A01 T01450120  RH  085%=      5-min Rain = 0
KAI1 241128Z 17012KT 14/12 A2986 RMK A01 T01440119  RH  085%=      5-min Rain = 0
KAI1 241129Z 16012KT 14/12 A2986 RMK A01 T01440120  RH  085%=      5-min Rain = 0
KAI1 241130Z 16011KT 14/12 A2986 RMK A01 T01440119  RH  085%=      5-min Rain = 0
KAI1 241131Z 17013KT 14/12 A2986 RMK A01 T01440119  RH  085%=      5-min Rain = 0
KAI1 241132Z 17012KT 14/12 A2986 RMK A01 T01430119  RH  085%=      5-min Rain = 0
KAI1 241133Z 17012KT 14/12 A2986 RMK A01 T01430120  RH  085%=      5-min Rain = 0
KAI1 241134Z 17013KT 14/12 A2986 RMK A01 T01440120  RH  086%=      5-min Rain = 0
KAI1 241135Z 17013KT 14/12 A2986 RMK A01 T01430119  RH  085%=      5-min Rain = 0
KAI1 241136Z 17013KT 14/12 A2986 RMK A01 T01430119  RH  085%=      5-min Rain = 0
KAI1 241137Z 17013KT 14/12 A2986 RMK A01 T01440119  RH  085%=      5-min Rain = 0
KAI1 241138Z 17014KT 14/12 A2986 RMK A01 T01440119  RH  085%=      5-min Rain = 0
KAI1 241139Z 17012KT 15/12 A2986 RMK A01 T01450119  RH  084%=      5-min Rain = 0
KAI1 241140Z 17011KT 15/12 A2986 RMK A01 T01450118  RH  084%=      5-min Rain = 0
KAI1 241141Z 17012KT 15/12 A2986 RMK A01 T01450118  RH  084%=      5-min Rain = 0
KAI1 241142Z 17012KT 15/12 A2986 RMK A01 T01450119  RH  084%=      5-min Rain = 0
KAI1 241143Z 17012KT 15/12 A2986 RMK A01 T01450119  RH  084%=      5-min Rain = 0
KAI1 241144Z 17012KT 15/12 A2986 RMK A01 T01460119  RH  084%=      5-min Rain = 0
KAI1 241145Z 17012KT 15/12 A2987 RMK A01 T01460118  RH  084%=      5-min Rain = 0
KAI1 241146Z 17012KT 15/12 A2987 RMK A01 T01460118  RH  083%=      5-min Rain = 0
KAI1 241147Z 17012KT 15/12 A2987 RMK A01 T01460118  RH  083%=      5-min Rain = 0
KAI1 241148Z 17012KT 15/12 A2987 RMK A01 T01470118  RH  083%=      5-min Rain = 0
KAI1 241149Z 17011KT 15/12 A2987 RMK A01 T01470118  RH  083%=      5-min Rain = 0
KAI1 241150Z 17013KT 15/12 A2987 RMK A01 T01470119  RH  083%=      5-min Rain = 0
KAI1 241151Z 17011KT 15/12 A2987 RMK A01 T01470118  RH  083%=      5-min Rain = 0
KAI1 241152Z 17012KT 15/12 A2987 RMK A01 T01470118  RH  083%=      5-min Rain = 0
KAI1 241153Z 17012KT 15/12 A2987 RMK A01 T01460118  RH  083%=      5-min Rain = 0
KAI1 241154Z 17011KT 15/12 A2987 RMK A01 T01470119  RH  083%=      5-min Rain = 0
KAI1 241155Z 17010KT 15/12 A2987 RMK A01 T01470119  RH  083%=      5-min Rain = 0
KAI1 241156Z 17011KT 15/12 A2987 RMK A01 T01470119  RH  083%=      5-min Rain = 0
KAI1 241157Z 17010KT 15/12 A2987 RMK A01 T01470119  RH  084%=      5-min Rain = 0
KAI1 241158Z 18011KT 15/12 A2987 RMK A01 T01460119  RH  084%=      5-min Rain = 0
KAI1 241159Z 18011KT 15/12 A2987 RMK A01 T01460119  RH  084%=      5-min Rain = 0
KAI1 241200Z 17011KT 15/12 A2987 RMK A01 T01460119  RH  084%=      5-min Rain = 0
KAI1 241201Z 18011KT 15/12 A2987 RMK A01 T01460119  RH  084%=      5-min Rain = 0
KAI1 241202Z 18010KT 15/12 A2987 RMK A01 T01460119  RH  084%=      5-min Rain = 0
KAI1 241203Z 17011KT 15/12 A2987 RMK A01 T01460119  RH  084%=      5-min Rain = 0
KAI1 241204Z 17011KT 15/12 A2987 RMK A01 T01460119  RH  084%=      5-min Rain = 0
KAI1 241205Z 17012KT 15/12 A2987 RMK A01 T01460119  RH  084%=      5-min Rain = 0
KAI1 241206Z 17012KT 15/12 A2987 RMK A01 T01450119  RH  084%=      5-min Rain = 0
KAI1 241207Z 17011KT 15/12 A2986 RMK A01 T01450119  RH  084%=      5-min Rain = 0
KAI1 241208Z 17012KT 15/12 A2986 RMK A01 T01450119  RH  084%=      5-min Rain = 0
KAI1 241209Z 17011KT 15/12 A2986 RMK A01 T01450119  RH  084%=      5-min Rain = 0
KAI1 241210Z 17011KT 15/12 A2986 RMK A01 T01450119  RH  084%=      5-min Rain = 0
KAI1 241211Z 17011KT 15/12 A2986 RMK A01 T01460119  RH  084%=      5-min Rain = 0
KAI1 241212Z 17011KT 15/12 A2986 RMK A01 T01460119  RH  084%=      5-min Rain = 0
KAI1 241213Z 17011KT 15/12 A2986 RMK A01 T01460119  RH  084%=      5-min Rain = 0
KAI1 241214Z 17011KT 15/12 A2986 RMK A01 T01470120  RH  084%=      5-min Rain = 0
KAI1 241215Z 17011KT 15/12 A2987 RMK A01 T01470119  RH  083%=      5-min Rain = 0
KAI1 241216Z 16011KT 15/12 A2987 RMK A01 T01480120  RH  083%=      5-min Rain = 0
KAI1 241217Z 16010KT 15/12 A2987 RMK A01 T01480120  RH  083%=      5-min Rain = 0
KAI1 241218Z 16010KT 15/12 A2987 RMK A01 T01480120  RH  083%=      5-min Rain = 0
KAI1 241219Z 17009KT 15/12 A2987 RMK A01 T01480120  RH  083%=      5-min Rain = 0
KAI1 241220Z 17009KT 15/12 A2987 RMK A01 T01480120  RH  083%=      5-min Rain = 0
KAI1 241221Z 17009KT 15/12 A2987 RMK A01 T01480120  RH  083%=      5-min Rain = 0
KAI1 241222Z 17009KT 15/12 A2987 RMK A01 T01480120  RH  083%=      5-min Rain = 0
KAI1 241223Z 17010KT 15/12 A2987 RMK A01 T01490120  RH  083%=      5-min Rain = 0
KAI1 241224Z 17010KT 15/12 A2987 RMK A01 T01490120  RH  083%=      5-min Rain = 0
KAI1 241225Z 17009KT 15/12 A2987 RMK A01 T01500120  RH  083%=      5-min Rain = 0
KAI1 241226Z 17009KT 15/12 A2987 RMK A01 T01490120  RH  083%=      5-min Rain = 0
KAI1 241227Z 17008KT 15/12 A2987 RMK A01 T01490120  RH  083%=      5-min Rain = 0
KAI1 241228Z 17008KT 15/12 A2987 RMK A01 T01500121  RH  083%=      5-min Rain = 0
KAI1 241229Z 17009KT 15/12 A2987 RMK A01 T01490120  RH  083%=      5-min Rain = 0
KAI1 241230Z 17009KT 15/12 A2987 RMK A01 T01500120  RH  083%=      5-min Rain = 0
KAI1 241231Z 17009KT 15/12 A2987 RMK A01 T01510121  RH  082%=      5-min Rain = 0
KAI1 241232Z 17009KT 15/12 A2987 RMK A01 T01510121  RH  082%=      5-min Rain = 0
KAI1 241233Z 18010KT 15/12 A2987 RMK A01 T01520120  RH  081%=      5-min Rain = 0
KAI1 241234Z 17010KT 15/12 A2987 RMK A01 T01530120  RH  081%=      5-min Rain = 0
KAI1 241235Z 17009KT 15/12 A2987 RMK A01 T01540121  RH  081%=      5-min Rain = 0
KAI1 241236Z 17009KT 16/12 A2987 RMK A01 T01550121  RH  080%=      5-min Rain = 0
KAI1 241237Z 17009KT 16/12 A2987 RMK A01 T01550121  RH  080%=      5-min Rain = 0
KAI1 241238Z 17007KT 16/12 A2987 RMK A01 T01560122  RH  080%=      5-min Rain = 0
KAI1 241239Z 17008KT 16/12 A2987 RMK A01 T01560122  RH  080%=      5-min Rain = 0
KAI1 241240Z 17008KT 16/12 A2987 RMK A01 T01560122  RH  080%=      5-min Rain = 0
KAI1 241241Z 18008KT 16/12 A2987 RMK A01 T01570122  RH  080%=      5-min Rain = 0
KAI1 241242Z 18009KT 16/12 A2988 RMK A01 T01570122  RH  079%=      5-min Rain = 0
KAI1 241243Z 18009KT 16/12 A2988 RMK A01 T01580122  RH  079%=      5-min Rain = 0
KAI1 241244Z 18009KT 16/12 A2988 RMK A01 T01580122  RH  079%=      5-min Rain = 0
KAI1 241245Z 17008KT 16/12 A2988 RMK A01 T01580122  RH  079%=      5-min Rain = 0
KAI1 241246Z 17008KT 16/12 A2988 RMK A01 T01590122  RH  079%=      5-min Rain = 0
KAI1 241247Z 17008KT 16/12 A2988 RMK A01 T01590123  RH  079%=      5-min Rain = 0
KAI1 241248Z 17009KT 16/12 A2988 RMK A01 T01600122  RH  078%=      5-min Rain = 0
KAI1 241249Z 17008KT 16/12 A2988 RMK A01 T01600123  RH  079%=      5-min Rain = 0
KAI1 241250Z 17009KT 16/12 A2988 RMK A01 T01610124  RH  079%=      5-min Rain = 0
KAI1 241251Z 17009KT 16/12 A2988 RMK A01 T01610123  RH  078%=      5-min Rain = 0
KAI1 241252Z 17009KT 16/12 A2988 RMK A01 T01610123  RH  078%=      5-min Rain = 0
KAI1 241253Z 17009KT 16/12 A2988 RMK A01 T01610124  RH  079%=      5-min Rain = 0
KAI1 241254Z 17009KT 16/12 A2988 RMK A01 T01610123  RH  078%=      5-min Rain = 0
KAI1 241255Z 17009KT 16/12 A2988 RMK A01 T01620124  RH  078%=      5-min Rain = 0
KAI1 241256Z 17008KT 16/12 A2988 RMK A01 T01620124  RH  078%=      5-min Rain = 0
KAI1 241257Z 17009KT 16/13 A2988 RMK A01 T01620125  RH  079%=      5-min Rain = 0
KAI1 241258Z 17011KT 16/13 A2988 RMK A01 T01640125  RH  078%=      5-min Rain = 0
KAI1 241259Z 17011KT 16/12 A2988 RMK A01 T01640123  RH  077%=      5-min Rain = 0
KAI1 241300Z 17011KT 16/12 A2988 RMK A01 T01640124  RH  077%=      5-min Rain = 0
KAI1 241301Z 17011KT 16/12 A2987 RMK A01 T01640124  RH  077%=      5-min Rain = 0
KAI1 241302Z 17011KT 17/13 A2987 RMK A01 T01650125  RH  077%=      5-min Rain = 0
KAI1 241303Z 17012KT 17/13 A2987 RMK A01 T01650125  RH  077%=      5-min Rain = 0
KAI1 241304Z 17012KT 17/13 A2987 RMK A01 T01650125  RH  077%=      5-min Rain = 0
KAI1 241305Z 17011KT 17/13 A2987 RMK A01 T01660126  RH  077%=      5-min Rain = 0
KAI1 241306Z 17012KT 17/13 A2987 RMK A01 T01660126  RH  077%=      5-min Rain = 0
KAI1 241307Z 17011KT 17/13 A2987 RMK A01 T01660126  RH  077%=      5-min Rain = 0
KAI1 241308Z 17011KT 17/13 A2987 RMK A01 T01680127  RH  077%=      5-min Rain = 0
KAI1 241309Z 17013KT 17/13 A2987 RMK A01 T01680126  RH  076%=      5-min Rain = 0
KAI1 241310Z 16012KT 17/13 A2987 RMK A01 T01690127  RH  076%=      5-min Rain = 0
KAI1 241311Z 17011KT 17/13 A2987 RMK A01 T01690127  RH  076%=      5-min Rain = 0
KAI1 241312Z 16010KT 17/13 A2987 RMK A01 T01710129  RH  076%=      5-min Rain = 0
KAI1 241313Z 17012KT 17/13 A2987 RMK A01 T01710128  RH  076%=      5-min Rain = 0
KAI1 241314Z 17010KT 17/13 A2987 RMK A01 T01720128  RH  075%=      5-min Rain = 0
KAI1 241315Z 17012KT 17/13 A2987 RMK A01 T01720128  RH  075%=      5-min Rain = 0
KAI1 241316Z 17011KT 17/13 A2987 RMK A01 T01730128  RH  075%=      5-min Rain = 0
KAI1 241317Z 17011KT 17/13 A2987 RMK A01 T01720128  RH  075%=      5-min Rain = 0
KAI1 241318Z 17010KT 17/13 A2987 RMK A01 T01730128  RH  075%=      5-min Rain = 0
KAI1 241319Z 17011KT 17/13 A2987 RMK A01 T01740128  RH  075%=      5-min Rain = 0
KAI1 241320Z 17011KT 17/13 A2987 RMK A01 T01740129  RH  075%=      5-min Rain = 0
KAI1 241321Z 17010KT 18/13 A2987 RMK A01 T01750129  RH  074%=      5-min Rain = 0
KAI1 241322Z 18009KT 18/13 A2988 RMK A01 T01760130  RH  075%=      5-min Rain = 0
KAI1 241323Z 18008KT 18/13 A2988 RMK A01 T01780131  RH  074%=      5-min Rain = 0
KAI1 241324Z 17010KT 18/13 A2988 RMK A01 T01790132  RH  074%=      5-min Rain = 0
KAI1 241325Z 17009KT 18/13 A2988 RMK A01 T01800131  RH  073%=      5-min Rain = 0
KAI1 241326Z 17010KT 18/13 A2988 RMK A01 T01810131  RH  072%=      5-min Rain = 0
KAI1 241327Z 18010KT 18/13 A2988 RMK A01 T01820131  RH  072%=      5-min Rain = 0
KAI1 241328Z 17011KT 18/13 A2988 RMK A01 T01810130  RH  072%=      5-min Rain = 0
KAI1 241329Z 17010KT 18/13 A2988 RMK A01 T01810131  RH  073%=      5-min Rain = 0
KAI1 241330Z 17011KT 18/13 A2988 RMK A01 T01810131  RH  073%=      5-min Rain = 0
KAI1 241331Z 17012KT 18/13 A2988 RMK A01 T01820130  RH  072%=      5-min Rain = 0
KAI1 241332Z 17011KT 18/13 A2988 RMK A01 T01830131  RH  072%=      5-min Rain = 0
KAI1 241333Z 18011KT 18/13 A2988 RMK A01 T01830131  RH  072%=      5-min Rain = 0
KAI1 241334Z 18011KT 18/13 A2988 RMK A01 T01830131  RH  072%=      5-min Rain = 0
KAI1 241335Z 18012KT 18/13 A2987 RMK A01 T01840131  RH  071%=      5-min Rain = 0
KAI1 241336Z 18013KT 19/13 A2987 RMK A01 T01860131  RH  070%=      5-min Rain = 0
KAI1 241337Z 18012KT 19/13 A2987 RMK A01 T01860130  RH  070%=      5-min Rain = 0
KAI1 241338Z 18012KT 19/13 A2987 RMK A01 T01870131  RH  070%=      5-min Rain = 0
KAI1 241339Z 17013KT 19/13 A2987 RMK A01 T01880132  RH  070%=      5-min Rain = 0
KAI1 241340Z 17012KT 19/13 A2987 RMK A01 T01890132  RH  069%=      5-min Rain = 0
KAI1 241341Z 17013KT 19/13 A2987 RMK A01 T01900133  RH  069%=      5-min Rain = 0
KAI1 241342Z 17014KT 19/13 A2987 RMK A01 T01900131  RH  069%=      5-min Rain = 0
KAI1 241343Z 17014KT 19/13 A2987 RMK A01 T01900131  RH  069%=      5-min Rain = 0
KAI1 241344Z 17013KT 19/13 A2987 RMK A01 T01900131  RH  068%=      5-min Rain = 0
KAI1 241345Z 17013KT 19/13 A2987 RMK A01 T01910131  RH  068%=      5-min Rain = 0
KAI1 241346Z 17014KT 19/13 A2987 RMK A01 T01920131  RH  068%=      5-min Rain = 0
KAI1 241347Z 18014KT 19/13 A2987 RMK A01 T01920131  RH  067%=      5-min Rain = 0
KAI1 241348Z 18011KT 19/13 A2987 RMK A01 T01920132  RH  068%=      5-min Rain = 0
KAI1 241349Z 17014KT 19/13 A2987 RMK A01 T01940133  RH  067%=      5-min Rain = 0
KAI1 241350Z 18015KT 20/13 A2987 RMK A01 T01950132  RH  067%=      5-min Rain = 0
KAI1 241351Z 18015KT 20/13 A2987 RMK A01 T01960131  RH  066%=      5-min Rain = 0
KAI1 241352Z 18013KT 20/13 A2987 RMK A01 T01960131  RH  066%=      5-min Rain = 0
KAI1 241353Z 18015KT 20/13 A2987 RMK A01 T01960132  RH  067%=      5-min Rain = 0
KAI1 241354Z 18014KT 20/13 A2987 RMK A01 T01970131  RH  065%=      5-min Rain = 0
KAI1 241355Z 19015KT 20/13 A2987 RMK A01 T01980131  RH  065%=      5-min Rain = 0
KAI1 241356Z 18014KT 20/13 A2987 RMK A01 T01990132  RH  065%=      5-min Rain = 0
KAI1 241357Z 19015KT 20/13 A2987 RMK A01 T02000133  RH  065%=      5-min Rain = 0
KAI1 241358Z 19016KT 20/13 A2987 RMK A01 T02010131  RH  064%=      5-min Rain = 0
KAI1 241359Z 18018KT 20/13 A2987 RMK A01 T02010131  RH  064%=      5-min Rain = 0
KAI1 241400Z 18016KT 20/13 A2987 RMK A01 T02010132  RH  064%=      5-min Rain = 0
KAI1 241401Z 19015KT 20/13 A2987 RMK A01 T02020133  RH  065%=      5-min Rain = 0
KAI1 241402Z 19015KT 20/13 A2987 RMK A01 T02020131  RH  064%=      5-min Rain = 0
KAI1 241403Z 19015KT 20/13 A2987 RMK A01 T02030132  RH  064%=      5-min Rain = 0
KAI1 241404Z 19015KT 20/13 A2987 RMK A01 T02040132  RH  063%=      5-min Rain = 0
KAI1 241405Z 18015KT 20/13 A2987 RMK A01 T02040132  RH  063%=      5-min Rain = 0
KAI1 241406Z 19017KT 20/13 A2987 RMK A01 T02040132  RH  063%=      5-min Rain = 0
KAI1 241407Z 19015KT 20/13 A2987 RMK A01 T02030132  RH  063%=      5-min Rain = 0
KAI1 241408Z 18015KT 20/13 A2987 RMK A01 T02030133  RH  064%=      5-min Rain = 0
KAI1 241409Z 18015KT 20/13 A2987 RMK A01 T02040134  RH  064%=      5-min Rain = 0
KAI1 241410Z 18017KT 21/13 A2986 RMK A01 T02050133  RH  063%=      5-min Rain = 0
KAI1 241411Z 19017KT 21/13 A2986 RMK A01 T02050132  RH  063%=      5-min Rain = 0
KAI1 241412Z 19017KT 21/13 A2986 RMK A01 T02050133  RH  063%=      5-min Rain = 0
KAI1 241413Z 18016KT 21/13 A2987 RMK A01 T02050133  RH  064%=      5-min Rain = 0
KAI1 241414Z 18017KT 21/13 A2986 RMK A01 T02050132  RH  063%=      5-min Rain = 0
KAI1 241415Z 18015G20KT 20/13 A2987 RMK A01 T02040133  RH  064%=      5-min Rain = 0
KAI1 241416Z 18019KT 20/13 A2987 RMK A01 T02040133  RH  064%=      5-min Rain = 0
KAI1 241417Z 18020KT 21/13 A2987 RMK A01 T02050133  RH  063%=      5-min Rain = 0
KAI1 241418Z 19020KT 21/13 A2987 RMK A01 T02050133  RH  063%=      5-min Rain = 0
KAI1 241419Z 19017KT 20/13 A2987 RMK A01 T02040133  RH  063%=      5-min Rain = 0
KAI1 241420Z 19017KT 21/13 A2987 RMK A01 T02050134  RH  064%=      5-min Rain = 0
KAI1 241421Z 19017KT 21/13 A2987 RMK A01 T02050134  RH  064%=      5-min Rain = 0
KAI1 241422Z 18017KT 21/13 A2987 RMK A01 T02050134  RH  064%=      5-min Rain = 0
KAI1 241423Z 19015KT 21/14 A2987 RMK A01 T02050135  RH  064%=      5-min Rain = 0
KAI1 241424Z 19018KT 21/14 A2987 RMK A01 T02070136  RH  064%=      5-min Rain = 0
KAI1 241425Z 20016KT 21/14 A2987 RMK A01 T02070135  RH  063%=      5-min Rain = 0
KAI1 241426Z 19018KT 21/14 A2987 RMK A01 T02080137  RH  064%=      5-min Rain = 0
KAI1 241427Z 19018KT 21/14 A2987 RMK A01 T02080135  RH  063%=      5-min Rain = 0
KAI1 241428Z 19016KT 21/14 A2987 RMK A01 T02080136  RH  063%=      5-min Rain = 0
KAI1 241429Z 19014KT 21/14 A2987 RMK A01 T02090137  RH  063%=      5-min Rain = 0
KAI1 241430Z 19016KT 21/14 A2987 RMK A01 T02100137  RH  063%=      5-min Rain = 0
KAI1 241431Z 18018KT 21/14 A2987 RMK A01 T02100137  RH  063%=      5-min Rain = 0
KAI1 241432Z 19019KT 21/14 A2987 RMK A01 T02100136  RH  063%=      5-min Rain = 0
KAI1 241433Z 19018KT 21/14 A2987 RMK A01 T02090137  RH  063%=      5-min Rain = 0
KAI1 241434Z 19016G21KT 21/14 A2987 RMK A01 T02090137  RH  063%=      5-min Rain = 0
KAI1 241435Z 18017KT 21/14 A2987 RMK A01 T02100138  RH  063%=      5-min Rain = 0
KAI1 241436Z 18018KT 21/14 A2987 RMK A01 T02110138  RH  063%=      5-min Rain = 0
KAI1 241437Z 19019KT 21/14 A2987 RMK A01 T02120138  RH  062%=      5-min Rain = 0
KAI1 241438Z 18018KT 21/14 A2987 RMK A01 T02130138  RH  062%=      5-min Rain = 0
KAI1 241439Z 19017KT 21/14 A2987 RMK A01 T02130138  RH  062%=      5-min Rain = 0
KAI1 241440Z 19018KT 21/14 A2987 RMK A01 T02130138  RH  062%=      5-min Rain = 0
KAI1 241441Z 19017KT 21/14 A2987 RMK A01 T02120138  RH  062%=      5-min Rain = 0
KAI1 241442Z 19018KT 21/14 A2987 RMK A01 T02120138  RH  063%=      5-min Rain = 0
KAI1 241443Z 18017KT 21/14 A2987 RMK A01 T02130138  RH  062%=      5-min Rain = 0
KAI1 241444Z 18019KT 21/14 A2987 RMK A01 T02130138  RH  062%=      5-min Rain = 0
KAI1 241445Z 19018KT 21/14 A2987 RMK A01 T02130138  RH  062%=      5-min Rain = 0
KAI1 241446Z 19015KT 21/14 A2987 RMK A01 T02130138  RH  063%=      5-min Rain = 0
KAI1 241447Z 18014G20KT 21/14 A2987 RMK A01 T02140141  RH  063%=      5-min Rain = 0
KAI1 241448Z 19015KT 22/14 A2987 RMK A01 T02170140  RH  061%=      5-min Rain = 0
KAI1 241449Z 19018KT 22/14 A2987 RMK A01 T02190139  RH  061%=      5-min Rain = 0
KAI1 241450Z 19015KT 22/14 A2987 RMK A01 T02170139  RH  061%=      5-min Rain = 0
KAI1 241451Z 19017KT 22/14 A2987 RMK A01 T02180140  RH  061%=      5-min Rain = 0
KAI1 241452Z 20019KT 22/14 A2987 RMK A01 T02190139  RH  060%=      5-min Rain = 0
KAI1 241453Z 19019KT 22/14 A2987 RMK A01 T02180139  RH  061%=      5-min Rain = 0
KAI1 241454Z 19017KT 22/14 A2987 RMK A01 T02180139  RH  061%=      5-min Rain = 0
KAI1 241455Z 19017KT 22/14 A2987 RMK A01 T02170138  RH  061%=      5-min Rain = 0
KAI1 241456Z 19017KT 22/14 A2987 RMK A01 T02170139  RH  061%=      5-min Rain = 0
KAI1 241457Z 19017KT 22/14 A2987 RMK A01 T02170139  RH  061%=      5-min Rain = 0
KAI1 241458Z 19019KT 22/14 A2986 RMK A01 T02190140  RH  061%=      5-min Rain = 0
KAI1 241459Z 19018KT 22/14 A2986 RMK A01 T02190138  RH  060%=      5-min Rain = 0
KAI1 241500Z 19018KT 22/14 A2986 RMK A01 T02190140  RH  061%=      5-min Rain = 0
KAI1 241501Z 19017KT 22/14 A2986 RMK A01 T02190140  RH  060%=      5-min Rain = 0
KAI1 241502Z 19016G21KT 22/14 A2986 RMK A01 T02200139  RH  060%=      5-min Rain = 0
KAI1 241503Z 20017KT 22/14 A2986 RMK A01 T02210141  RH  060%=      5-min Rain = 0
KAI1 241504Z 19017KT 22/14 A2986 RMK A01 T02230140  RH  059%=      5-min Rain = 0
KAI1 241505Z 19017KT 22/14 A2986 RMK A01 T02220139  RH  059%=      5-min Rain = 0
KAI1 241506Z 19016KT 22/14 A2986 RMK A01 T02210139  RH  060%=      5-min Rain = 0
KAI1 241507Z 18018KT 22/14 A2986 RMK A01 T02190140  RH  060%=      5-min Rain = 0
KAI1 241508Z 19017KT 22/14 A2986 RMK A01 T02210140  RH  060%=      5-min Rain = 0
KAI1 241509Z 19016KT 22/14 A2986 RMK A01 T02230140  RH  059%=      5-min Rain = 0
KAI1 241510Z 20017KT 22/14 A2986 RMK A01 T02220140  RH  060%=      5-min Rain = 0
KAI1 241511Z 19014KT 22/14 A2986 RMK A01 T02230142  RH  060%=      5-min Rain = 0
KAI1 241512Z 20014KT 23/14 A2986 RMK A01 T02260142  RH  059%=      5-min Rain = 0
KAI1 241513Z 19016KT 23/14 A2986 RMK A01 T02280142  RH  058%=      5-min Rain = 0
KAI1 241514Z 19017KT 23/14 A2986 RMK A01 T02280141  RH  058%=      5-min Rain = 0
KAI1 241515Z 20018KT 23/14 A2986 RMK A01 T02250140  RH  059%=      5-min Rain = 0
KAI1 241516Z 20018KT 22/14 A2986 RMK A01 T02240140  RH  059%=      5-min Rain = 0
KAI1 241517Z 18018KT 22/14 A2986 RMK A01 T02230140  RH  059%=      5-min Rain = 0
KAI1 241518Z 19019KT 22/14 A2986 RMK A01 T02220140  RH  060%=      5-min Rain = 0
KAI1 241519Z 19018KT 22/14 A2986 RMK A01 T02230141  RH  060%=      5-min Rain = 0
KAI1 241520Z 19021KT 23/14 A2985 RMK A01 T02250141  RH  059%=      5-min Rain = 0
KAI1 241521Z 20020KT 23/14 A2986 RMK A01 T02250141  RH  059%=      5-min Rain = 0
KAI1 241522Z 20018KT 22/14 A2986 RMK A01 T02240141  RH  059%=      5-min Rain = 0
KAI1 241523Z 19021KT 23/14 A2985 RMK A01 T02250141  RH  059%=      5-min Rain = 0
KAI1 241524Z 20020KT 23/14 A2985 RMK A01 T02260140  RH  058%=      5-min Rain = 0
KAI1 241525Z 20017KT 23/14 A2985 RMK A01 T02250141  RH  059%=      5-min Rain = 0
KAI1 241526Z 21018KT 22/14 A2985 RMK A01 T02240141  RH  059%=      5-min Rain = 0
KAI1 241527Z 20017KT 23/14 A2985 RMK A01 T02250141  RH  059%=      5-min Rain = 0
KAI1 241528Z 20017KT 23/14 A2985 RMK A01 T02250140  RH  059%=      5-min Rain = 0
KAI1 241529Z 19018G23KT 23/14 A2985 RMK A01 T02250142  RH  059%=      5-min Rain = 0
KAI1 241530Z 20023KT 23/14 A2985 RMK A01 T02270141  RH  058%=      5-min Rain = 0
KAI1 241531Z 21019KT 23/14 A2985 RMK A01 T02280142  RH  058%=      5-min Rain = 0
KAI1 241532Z 21017KT 23/14 A2985 RMK A01 T02290142  RH  058%=      5-min Rain = 0
KAI1 241533Z 21016KT 23/14 A2985 RMK A01 T02290142  RH  058%=      5-min Rain = 0
KAI1 241534Z 19015G22KT 23/14 A2985 RMK A01 T02300144  RH  058%=      5-min Rain = 0
KAI1 241535Z 20020KT 23/14 A2985 RMK A01 T02330143  RH  057%=      5-min Rain = 0
KAI1 241536Z 20018KT 23/14 A2985 RMK A01 T02330142  RH  057%=      5-min Rain = 0
KAI1 241537Z 20017KT 23/14 A2985 RMK A01 T02300142  RH  058%=      5-min Rain = 0
KAI1 241538Z 20019KT 23/14 A2985 RMK A01 T02300143  RH  058%=      5-min Rain = 0
KAI1 241539Z 20018KT 23/14 A2985 RMK A01 T02300142  RH  058%=      5-min Rain = 0
KAI1 241540Z 20017KT 23/14 A2985 RMK A01 T02290142  RH  058%=      5-min Rain = 0
KAI1 241541Z 19016KT 23/14 A2985 RMK A01 T02310143  RH  058%=      5-min Rain = 0
KAI1 241542Z 20018KT 23/14 A2985 RMK A01 T02320144  RH  058%=      5-min Rain = 0
KAI1 241543Z 21018KT 23/14 A2985 RMK A01 T02330143  RH  057%=      5-min Rain = 0
KAI1 241544Z 20015KT 23/14 A2985 RMK A01 T02310144  RH  058%=      5-min Rain = 0
KAI1 241545Z 20017KT 23/14 A2985 RMK A01 T02320143  RH  057%=      5-min Rain = 0
KAI1 241546Z 20017KT 23/14 A2985 RMK A01 T02320144  RH  057%=      5-min Rain = 0
KAI1 241547Z 20013G18KT 23/15 A2985 RMK A01 T02330145  RH  058%=      5-min Rain = 0
KAI1 241548Z 20016KT 24/15 A2985 RMK A01 T02370146  RH  057%=      5-min Rain = 0
KAI1 241549Z 19016KT 24/15 A2985 RMK A01 T02350145  RH  057%=      5-min Rain = 0
KAI1 241550Z 19019KT 23/15 A2985 RMK A01 T02340145  RH  057%=      5-min Rain = 0
KAI1 241551Z 20018KT 24/14 A2986 RMK A01 T02350143  RH  056%=      5-min Rain = 0
KAI1 241552Z 20015KT 23/14 A2986 RMK A01 T02340144  RH  057%=      5-min Rain = 0
KAI1 241553Z 21015KT 23/15 A2985 RMK A01 T02340145  RH  057%=      5-min Rain = 0
KAI1 241554Z 22017KT 24/15 A2985 RMK A01 T02350145  RH  057%=      5-min Rain = 0
KAI1 241555Z 20015KT 24/15 A2985 RMK A01 T02360145  RH  057%=      5-min Rain = 0
KAI1 241556Z 20019KT 24/15 A2985 RMK A01 T02380146  RH  056%=      5-min Rain = 0
KAI1 241557Z 21016KT 24/15 A2985 RMK A01 T02400145  RH  055%=      5-min Rain = 0
KAI1 241558Z 21013KT 24/15 A2985 RMK A01 T02390145  RH  056%=      5-min Rain = 0
KAI1 241559Z 20015KT 24/15 A2985 RMK A01 T02390146  RH  056%=      5-min Rain = 0
KAI1 241600Z 20015KT 24/15 A2985 RMK A01 T02390146  RH  056%=      5-min Rain = 0
KAI1 241601Z 21017G23KT 24/15 A2985 RMK A01 T02400146  RH  056%=      5-min Rain = 0
KAI1 241602Z 21016KT 24/15 A2985 RMK A01 T02400145  RH  055%=      5-min Rain = 0
KAI1 241603Z 21016KT 24/15 A2985 RMK A01 T02380145  RH  056%=      5-min Rain = 0
KAI1 241604Z 21018KT 24/15 A2985 RMK A01 T02400146  RH  056%=      5-min Rain = 0
KAI1 241605Z 21014KT 24/15 A2985 RMK A01 T02400145  RH  055%=      5-min Rain = 0
KAI1 241606Z 22013G18KT 24/15 A2985 RMK A01 T02410146  RH  055%=      5-min Rain = 0
KAI1 241607Z 19017KT 24/15 A2985 RMK A01 T02420147  RH  055%=      5-min Rain = 0
KAI1 241608Z 19017KT 24/15 A2985 RMK A01 T02420146  RH  055%=      5-min Rain = 0
KAI1 241609Z 21014KT 24/15 A2985 RMK A01 T02420146  RH  055%=      5-min Rain = 0
KAI1 241610Z 19018KT 24/15 A2985 RMK A01 T02440148  RH  055%=      5-min Rain = 0
KAI1 241611Z 20017KT 24/15 A2985 RMK A01 T02440146  RH  054%=      5-min Rain = 0
KAI1 241612Z 19015KT 24/15 A2985 RMK A01 T02410145  RH  055%=      5-min Rain = 0
KAI1 241613Z 19017KT 24/15 A2985 RMK A01 T02390146  RH  056%=      5-min Rain = 0
KAI1 241614Z 19017KT 24/15 A2985 RMK A01 T02430147  RH  055%=      5-min Rain = 0
KAI1 241615Z 20015KT 24/15 A2985 RMK A01 T02440147  RH  055%=      5-min Rain = 0
KAI1 241616Z 20012KT 24/15 A2985 RMK A01 T02420147  RH  055%=      5-min Rain = 0
KAI1 241617Z 19013KT 25/15 A2985 RMK A01 T02450149  RH  055%=      5-min Rain = 0
KAI1 241618Z 19015KT 25/15 A2985 RMK A01 T02460148  RH  055%=      5-min Rain = 0
KAI1 241619Z 19013KT 25/15 A2986 RMK A01 T02450147  RH  054%=      5-min Rain = 0
KAI1 241620Z 20015KT 25/15 A2985 RMK A01 T02450148  RH  055%=      5-min Rain = 0
KAI1 241621Z 19016KT 25/15 A2986 RMK A01 T02480149  RH  054%=      5-min Rain = 0
KAI1 241622Z 18013KT 25/15 A2986 RMK A01 T02480148  RH  053%=      5-min Rain = 0
KAI1 241623Z 19014G19KT 25/15 A2986 RMK A01 T02470148  RH  054%=      5-min Rain = 0
KAI1 241624Z 19015KT 25/15 A2986 RMK A01 T02470148  RH  054%=      5-min Rain = 0
KAI1 241625Z 20011KT 25/15 A2986 RMK A01 T02460148  RH  055%=      5-min Rain = 0
KAI1 241626Z 20014KT 25/15 A2986 RMK A01 T02470149  RH  054%=      5-min Rain = 0
KAI1 241627Z 19013KT 25/15 A2986 RMK A01 T02470148  RH  054%=      5-min Rain = 0
KAI1 241628Z 18015KT 25/15 A2985 RMK A01 T02450148  RH  055%=      5-min Rain = 0
KAI1 241629Z 19014KT 25/15 A2985 RMK A01 T02450149  RH  055%=      5-min Rain = 0
KAI1 241630Z 18015KT 25/15 A2986 RMK A01 T02500152  RH  055%=      5-min Rain = 0
KAI1 241631Z 18015KT 25/15 A2986 RMK A01 T02520150  RH  053%=      5-min Rain = 0
KAI1 241632Z 20017KT 25/15 A2986 RMK A01 T02520150  RH  053%=      5-min Rain = 0
KAI1 241633Z 20015KT 25/15 A2986 RMK A01 T02510148  RH  053%=      5-min Rain = 0
KAI1 241634Z 19017KT 25/15 A2986 RMK A01 T02480149  RH  054%=      5-min Rain = 0
KAI1 241635Z 21014KT 25/15 A2986 RMK A01 T02480148  RH  054%=      5-min Rain = 0
KAI1 241636Z 20012KT 25/15 A2986 RMK A01 T02490149  RH  054%=      5-min Rain = 0
KAI1 241637Z 20017KT 25/15 A2986 RMK A01 T02510150  RH  054%=      5-min Rain = 0
KAI1 241638Z 19016KT 25/15 A2986 RMK A01 T02510148  RH  053%=      5-min Rain = 0
KAI1 241639Z 18016KT 25/15 A2986 RMK A01 T02530149  RH  052%=      5-min Rain = 0
KAI1 241640Z 18016KT 25/15 A2986 RMK A01 T02540148  RH  052%=      5-min Rain = 0
KAI1 241641Z 19015KT 25/15 A2986 RMK A01 T02510148  RH  053%=      5-min Rain = 0
KAI1 241642Z 20013KT 25/15 A2986 RMK A01 T02500148  RH  053%=      5-min Rain = 0
KAI1 241643Z 19016KT 25/15 A2986 RMK A01 T02530150  RH  053%=      5-min Rain = 0
KAI1 241644Z 19015KT 26/15 A2986 RMK A01 T02560148  RH  051%=      5-min Rain = 0
KAI1 241645Z 18013KT 25/15 A2986 RMK A01 T02540149  RH  052%=      5-min Rain = 0
KAI1 241646Z 18014KT 25/15 A2986 RMK A01 T02530149  RH  053%=      5-min Rain = 0
KAI1 241647Z 19015KT 25/15 A2986 RMK A01 T02520149  RH  053%=      5-min Rain = 0
KAI1 241648Z 18018KT 25/15 A2986 RMK A01 T02530150  RH  053%=      5-min Rain = 0
KAI1 241649Z 20015KT 26/15 A2986 RMK A01 T02550150  RH  052%=      5-min Rain = 0
KAI1 241650Z 19014KT 26/15 A2986 RMK A01 T02570149  RH  051%=      5-min Rain = 0
KAI1 241651Z 18014KT 25/15 A2986 RMK A01 T02540150  RH  052%=      5-min Rain = 0
KAI1 241652Z 18017KT 25/15 A2986 RMK A01 T02530150  RH  053%=      5-min Rain = 0
KAI1 241653Z 19016KT 25/15 A2986 RMK A01 T02520150  RH  053%=      5-min Rain = 0
KAI1 241654Z 19017KT 25/15 A2986 RMK A01 T02530150  RH  053%=      5-min Rain = 0
KAI1 241655Z 20014KT 25/15 A2986 RMK A01 T02530150  RH  053%=      5-min Rain = 0
KAI1 241656Z 20011KT 25/15 A2986 RMK A01 T02520151  RH  053%=      5-min Rain = 0
KAI1 241657Z 19009KT 25/15 A2986 RMK A01 T02510152  RH  054%=      5-min Rain = 0
KAI1 241658Z 19011G17KT 26/15 A2986 RMK A01 T02560153  RH  053%=      5-min Rain = 0
KAI1 241659Z 20015KT 26/15 A2986 RMK A01 T02600152  RH  051%=      5-min Rain = 0
KAI1 241700Z 18012KT 26/15 A2986 RMK A01 T02600150  RH  051%=      5-min Rain = 0
KAI1 241701Z 17015KT 26/15 A2986 RMK A01 T02590151  RH  051%=      5-min Rain = 0
KAI1 241702Z 18014KT 26/15 A2986 RMK A01 T02590151  RH  051%=      5-min Rain = 0
KAI1 241703Z 18012KT 26/15 A2986 RMK A01 T02590152  RH  052%=      5-min Rain = 0
KAI1 241704Z 20008KT 26/15 A2986 RMK A01 T02600151  RH  051%=      5-min Rain = 0
KAI1 241705Z 20012KT 26/15 A2986 RMK A01 T02580152  RH  052%=      5-min Rain = 0
KAI1 241706Z 18015KT 26/15 A2986 RMK A01 T02600153  RH  052%=      5-min Rain = 0
KAI1 241707Z 18015KT 26/15 A2986 RMK A01 T02640151  RH  050%=      5-min Rain = 0
KAI1 241708Z 18015KT 26/15 A2986 RMK A01 T02630153  RH  051%=      5-min Rain = 0
KAI1 241709Z 18014KT 26/15 A2986 RMK A01 T02620151  RH  050%=      5-min Rain = 0
KAI1 241710Z 20015KT 26/15 A2986 RMK A01 T02600149  RH  050%=      5-min Rain = 0
KAI1 241711Z 22013KT 26/14 A2986 RMK A01 T02590144  RH  049%=      5-min Rain = 0
KAI1 241712Z 21011KT 26/15 A2986 RMK A01 T02590145  RH  049%=      5-min Rain = 0
KAI1 241713Z 19013G18KT 26/15 A2986 RMK A01 T02590146  RH  050%=      5-min Rain = 0
KAI1 241714Z 19012KT 26/15 A2986 RMK A01 T02600148  RH  050%=      5-min Rain = 0
KAI1 241715Z 19010KT 26/15 A2986 RMK A01 T02610148  RH  050%=      5-min Rain = 0
KAI1 241716Z 20010KT 26/15 A2986 RMK A01 T02640152  RH  050%=      5-min Rain = 0
KAI1 241717Z 19015KT 27/15 A2986 RMK A01 T02660153  RH  050%=      5-min Rain = 0
KAI1 241718Z 18013KT 27/15 A2986 RMK A01 T02660154  RH  050%=      5-min Rain = 0
KAI1 241719Z 19012KT 27/16 A2986 RMK A01 T02650155  RH  051%=      5-min Rain = 0
KAI1 241720Z 18012KT 26/16 A2986 RMK A01 T02620156  RH  052%=      5-min Rain = 0
KAI1 241721Z 17013KT 26/16 A2986 RMK A01 T02600157  RH  053%=      5-min Rain = 0
KAI1 241722Z 16015KT 26/16 A2986 RMK A01 T02630156  RH  052%=      5-min Rain = 0
KAI1 241723Z 16013KT 26/16 A2986 RMK A01 T02640155  RH  051%=      5-min Rain = 0
KAI1 241724Z 16012KT 26/16 A2986 RMK A01 T02640156  RH  051%=      5-min Rain = 0
KAI1 241725Z 18013KT 27/16 A2986 RMK A01 T02660157  RH  051%=      5-min Rain = 0
KAI1 241726Z 21013KT 27/15 A2986 RMK A01 T02660154  RH  050%=      5-min Rain = 0
KAI1 241727Z 18014KT 27/16 A2986 RMK A01 T02650156  RH  051%=      5-min Rain = 0
KAI1 241728Z 17013KT 27/16 A2986 RMK A01 T02650156  RH  051%=      5-min Rain = 0
KAI1 241729Z 18012KT 27/16 A2986 RMK A01 T02660156  RH  051%=      5-min Rain = 0
KAI1 241730Z 16011KT 26/16 A2986 RMK A01 T02640157  RH  052%=      5-min Rain = 0
KAI1 241731Z 17012KT 27/16 A2986 RMK A01 T02650158  RH  052%=      5-min Rain = 0
KAI1 241732Z 17012KT 27/16 A2986 RMK A01 T02690160  RH  051%=      5-min Rain = 0
KAI1 241733Z 16013KT 27/16 A2986 RMK A01 T02710158  RH  050%=      5-min Rain = 0
KAI1 241734Z 16012KT 27/16 A2986 RMK A01 T02680157  RH  051%=      5-min Rain = 0
KAI1 241735Z 19014G20KT 27/16 A2986 RMK A01 T02670158  RH  051%=      5-min Rain = 0
KAI1 241736Z 19016KT 27/16 A2986 RMK A01 T02680157  RH  050%=      5-min Rain = 0
KAI1 241737Z 19016KT 27/16 A2986 RMK A01 T02700155  RH  049%=      5-min Rain = 0
KAI1 241738Z 18015KT 27/15 A2986 RMK A01 T02670153  RH  050%=      5-min Rain = 0
KAI1 241739Z 21013G19KT 27/15 A2986 RMK A01 T02660154  RH  050%=      5-min Rain = 0
KAI1 241740Z 20013G18KT 27/16 A2986 RMK A01 T02660155  RH  051%=      5-min Rain = 0
KAI1 241741Z 18013KT 27/16 A2986 RMK A01 T02650157  RH  051%=      5-min Rain = 0
KAI1 241742Z 18011KT 26/16 A2986 RMK A01 T02640156  RH  051%=      5-min Rain = 0
KAI1 241743Z 19014KT 27/16 A2986 RMK A01 T02650159  RH  052%=      5-min Rain = 0
KAI1 241744Z 19013KT 27/16 A2986 RMK A01 T02650159  RH  052%=      5-min Rain = 0
KAI1 241745Z 18013KT 26/16 A2986 RMK A01 T02640159  RH  052%=      5-min Rain = 0
KAI1 241746Z 18014G19KT 26/16 A2986 RMK A01 T02640158  RH  052%=      5-min Rain = 0
KAI1 241747Z 19016KT 27/16 A2986 RMK A01 T02650156  RH  051%=      5-min Rain = 0
KAI1 241748Z 19014KT 26/16 A2986 RMK A01 T02640158  RH  052%=      5-min Rain = 0
KAI1 241749Z 21013G19KT 26/16 A2986 RMK A01 T02610157  RH  053%=      5-min Rain = 0
KAI1 241750Z 21016KT 26/16 A2986 RMK A01 T02620158  RH  053%=      5-min Rain = 0
KAI1 241751Z 19012KT 26/16 A2986 RMK A01 T02640157  RH  052%=      5-min Rain = 0
KAI1 241752Z 19012KT 27/16 A2986 RMK A01 T02660157  RH  051%=      5-min Rain = 0
KAI1 241753Z 18012KT 27/16 A2986 RMK A01 T02660156  RH  051%=      5-min Rain = 0
KAI1 241754Z 19009KT 26/16 A2986 RMK A01 T02620156  RH  052%=      5-min Rain = 0
KAI1 241755Z 19009KT 26/16 A2985 RMK A01 T02610158  RH  053%=      5-min Rain = 0
KAI1 241756Z 19010KT 26/16 A2985 RMK A01 T02610160  RH  053%=      5-min Rain = 0
KAI1 241757Z 20013KT 26/16 A2985 RMK A01 T02620158  RH  053%=      5-min Rain = 0
KAI1 241758Z 20012G17KT 27/16 A2985 RMK A01 T02660158  RH  051%=      5-min Rain = 0
KAI1 241759Z 19011KT 27/16 A2985 RMK A01 T02650157  RH  051%=      5-min Rain = 0
KAI1 241800Z 19013KT 27/16 A2985 RMK A01 T02650161  RH  053%=      5-min Rain = 0
KAI1 241801Z 19013KT 27/16 A2985 RMK A01 T02690161  RH  051%=      5-min Rain = 0
KAI1 241802Z 17011KT 27/16 A2985 RMK A01 T02710161  RH  051%=      5-min Rain = 0
KAI1 241803Z 17011G16KT 27/16 A2985 RMK A01 T02700160  RH  051%=      5-min Rain = 0
KAI1 241804Z 18014KT 27/16 A2985 RMK A01 T02690160  RH  051%=      5-min Rain = 0
KAI1 241805Z 19013KT 27/16 A2985 RMK A01 T02690160  RH  051%=      5-min Rain = 0
KAI1 241806Z 20015KT 27/16 A2985 RMK A01 T02720159  RH  050%=      5-min Rain = 0
KAI1 241807Z 21011KT 27/16 A2985 RMK A01 T02730157  RH  049%=      5-min Rain = 0
KAI1 241808Z 17010KT 27/16 A2985 RMK A01 T02710159  RH  050%=      5-min Rain = 0
KAI1 241809Z 19012KT 27/16 A2985 RMK A01 T02710159  RH  050%=      5-min Rain = 0
KAI1 241810Z 20012KT 27/16 A2985 RMK A01 T02710159  RH  050%=      5-min Rain = 0
KAI1 241811Z 18012KT 27/16 A2985 RMK A01 T02680157  RH  050%=      5-min Rain = 0
KAI1 241812Z 18013G18KT 27/16 A2985 RMK A01 T02680158  RH  051%=      5-min Rain = 0
KAI1 241813Z 19010KT 27/16 A2985 RMK A01 T02680159  RH  051%=      5-min Rain = 0
KAI1 241814Z 16012KT 27/16 A2985 RMK A01 T02670159  RH  051%=      5-min Rain = 0
KAI1 241815Z 17013KT 27/16 A2985 RMK A01 T02670160  RH  052%=      5-min Rain = 0
KAI1 241816Z 20015KT 27/16 A2985 RMK A01 T02710159  RH  050%=      5-min Rain = 0
KAI1 241817Z 22014KT 28/16 A2985 RMK A01 T02750160  RH  049%=      5-min Rain = 0
KAI1 241818Z 21012KT 28/16 A2985 RMK A01 T02760160  RH  049%=      5-min Rain = 0
KAI1 241819Z 18010KT 28/16 A2985 RMK A01 T02760156  RH  048%=      5-min Rain = 0
KAI1 241820Z 20010KT 27/16 A2985 RMK A01 T02730157  RH  049%=      5-min Rain = 0
KAI1 241821Z 18009KT 27/16 A2985 RMK A01 T02710159  RH  050%=      5-min Rain = 0
KAI1 241822Z 18009KT 27/16 A2985 RMK A01 T02700160  RH  051%=      5-min Rain = 0
KAI1 241823Z 18013KT 27/16 A2984 RMK A01 T02720158  RH  050%=      5-min Rain = 0
KAI1 241824Z 20011KT 27/16 A2984 RMK A01 T02740158  RH  049%=      5-min Rain = 0
KAI1 241825Z 19010KT 27/16 A2984 RMK A01 T02720160  RH  050%=      5-min Rain = 0
KAI1 241826Z 17012G17KT 27/16 A2984 RMK A01 T02720160  RH  050%=      5-min Rain = 0
KAI1 241827Z 18014KT 27/16 A2984 RMK A01 T02740159  RH  049%=      5-min Rain = 0
KAI1 241828Z 18011KT 28/16 A2984 RMK A01 T02750157  RH  049%=      5-min Rain = 0
KAI1 241829Z 19008KT 27/16 A2984 RMK A01 T02740158  RH  049%=      5-min Rain = 0
KAI1 241830Z 19010KT 28/16 A2984 RMK A01 T02770159  RH  049%=      5-min Rain = 0
KAI1 241831Z 19011KT 28/16 A2984 RMK A01 T02800158  RH  047%=      5-min Rain = 0
KAI1 241832Z 18013KT 28/16 A2984 RMK A01 T02790161  RH  049%=      5-min Rain = 0
KAI1 241833Z 17011G17KT 28/16 A2984 RMK A01 T02760160  RH  049%=      5-min Rain = 0
KAI1 241834Z 19016KT 28/15 A2984 RMK A01 T02780154  RH  047%=      5-min Rain = 0
KAI1 241835Z 18015KT 28/15 A2984 RMK A01 T02810150  RH  045%=      5-min Rain = 0
KAI1 241836Z 19013KT 28/15 A2984 RMK A01 T02790150  RH  045%=      5-min Rain = 0
KAI1 241837Z 20014KT 28/15 A2984 RMK A01 T02790150  RH  046%=      5-min Rain = 0
KAI1 241838Z 20014KT 28/15 A2984 RMK A01 T02820152  RH  045%=      5-min Rain = 0
KAI1 241839Z 19011KT 28/15 A2984 RMK A01 T02810153  RH  046%=      5-min Rain = 0
KAI1 241840Z 20011G18KT 28/15 A2984 RMK A01 T02780153  RH  047%=      5-min Rain = 0
KAI1 241841Z 18009KT 28/15 A2984 RMK A01 T02790153  RH  046%=      5-min Rain = 0
KAI1 241842Z 18008KT 28/15 A2984 RMK A01 T02790152  RH  046%=      5-min Rain = 0
KAI1 241843Z 16010G15KT 28/15 A2984 RMK A01 T02770154  RH  047%=      5-min Rain = 0
KAI1 241844Z 17014KT 28/16 A2984 RMK A01 T02790158  RH  048%=      5-min Rain = 0
KAI1 241845Z 19013KT 28/16 A2984 RMK A01 T02800158  RH  047%=      5-min Rain = 0
KAI1 241846Z 20007KT 28/16 A2984 RMK A01 T02770159  RH  049%=      5-min Rain = 0
KAI1 241847Z 19014KT 28/16 A2984 RMK A01 T02780160  RH  049%=      5-min Rain = 0
KAI1 241848Z 17014KT 28/16 A2984 RMK A01 T02820156  RH  046%=      5-min Rain = 0
KAI1 241849Z 17013KT 28/16 A2984 RMK A01 T02820156  RH  046%=      5-min Rain = 0
KAI1 241850Z 18012KT 28/16 A2984 RMK A01 T02820156  RH  046%=      5-min Rain = 0
KAI1 241851Z 18012KT 28/15 A2984 RMK A01 T02820154  RH  046%=      5-min Rain = 0
KAI1 241852Z 18009KT 28/16 A2984 RMK A01 T02810155  RH  046%=      5-min Rain = 0
KAI1 241853Z 20010KT 28/16 A2984 RMK A01 T02790156  RH  047%=      5-min Rain = 0
KAI1 241854Z 20009KT 28/16 A2984 RMK A01 T02790156  RH  047%=      5-min Rain = 0
KAI1 241855Z 20011KT 28/16 A2984 RMK A01 T02800157  RH  047%=      5-min Rain = 0
KAI1 241856Z 18011KT 28/16 A2984 RMK A01 T02820159  RH  047%=      5-min Rain = 0
KAI1 241857Z 17011KT 28/16 A2984 RMK A01 T02840158  RH  046%=      5-min Rain = 0
KAI1 241858Z 18013KT 29/16 A2983 RMK A01 T02850159  RH  046%=      5-min Rain = 0
KAI1 241859Z 17011KT 28/16 A2983 RMK A01 T02840159  RH  046%=      5-min Rain = 0
KAI1 241900Z 16010KT 28/16 A2983 RMK A01 T02840160  RH  047%=      5-min Rain = 0
KAI1 241901Z 16010KT 28/16 A2983 RMK A01 T02830159  RH  047%=      5-min Rain = 0
KAI1 241902Z 15012G17KT 28/16 A2983 RMK A01 T02840159  RH  047%=      5-min Rain = 0
KAI1 241903Z 15013KT 29/16 A2983 RMK A01 T02850159  RH  046%=      5-min Rain = 0
KAI1 241904Z 17013KT 29/16 A2983 RMK A01 T02860157  RH  046%=      5-min Rain = 0
KAI1 241905Z 17010KT 28/16 A2983 RMK A01 T02840155  RH  045%=      5-min Rain = 0
KAI1 241906Z 16010KT 28/16 A2983 RMK A01 T02810155  RH  046%=      5-min Rain = 0
KAI1 241907Z 17010KT 28/16 A2983 RMK A01 T02810155  RH  046%=      5-min Rain = 0
KAI1 241908Z 19011KT 28/16 A2983 RMK A01 T02820157  RH  047%=      5-min Rain = 0
KAI1 241909Z 19012KT 29/16 A2983 RMK A01 T02860156  RH  045%=      5-min Rain = 0
KAI1 241910Z 19012KT 29/16 A2983 RMK A01 T02880156  RH  045%=      5-min Rain = 0
KAI1 241911Z 19011KT 29/16 A2983 RMK A01 T02880156  RH  045%=      5-min Rain = 0
KAI1 241912Z 19010KT 29/15 A2983 RMK A01 T02870154  RH  044%=      5-min Rain = 0
KAI1 241913Z 18008KT 29/15 A2983 RMK A01 T02870154  RH  044%=      5-min Rain = 0
KAI1 241914Z 17009KT 29/15 A2983 RMK A01 T02880150  RH  043%=      5-min Rain = 0
KAI1 241915Z 17014KT 29/16 A2983 RMK A01 T02880156  RH  045%=      5-min Rain = 0
KAI1 241916Z 17013KT 29/16 A2983 RMK A01 T02890156  RH  044%=      5-min Rain = 0
KAI1 241917Z 17010KT 29/15 A2983 RMK A01 T02850154  RH  045%=      5-min Rain = 0
KAI1 241918Z 17011KT 29/16 A2983 RMK A01 T02850156  RH  046%=      5-min Rain = 0
KAI1 241919Z 16010KT 29/15 A2983 RMK A01 T02870154  RH  044%=      5-min Rain = 0
KAI1 241920Z 18013KT 29/15 A2983 RMK A01 T02880151  RH  043%=      5-min Rain = 0
KAI1 241921Z 17011KT 29/15 A2983 RMK A01 T02890150  RH  043%=      5-min Rain = 0
KAI1 241922Z 19011KT 29/15 A2983 RMK A01 T02890152  RH  043%=      5-min Rain = 0
KAI1 241923Z 19010KT 29/15 A2983 RMK A01 T02890150  RH  043%=      5-min Rain = 0
KAI1 241924Z 19011KT 29/15 A2983 RMK A01 T02880147  RH  042%=      5-min Rain = 0
KAI1 241925Z 20007KT 29/14 A2983 RMK A01 T02880142  RH  041%=      5-min Rain = 0
KAI1 241926Z 17005KT 29/14 A2982 RMK A01 T02860142  RH  041%=      5-min Rain = 0
KAI1 241927Z 20006KT 28/14 A2982 RMK A01 T02840141  RH  041%=      5-min Rain = 0
KAI1 241928Z 18007KT 28/14 A2982 RMK A01 T02840141  RH  041%=      5-min Rain = 0
KAI1 241929Z 16006KT 29/14 A2982 RMK A01 T02860140  RH  041%=      5-min Rain = 0
KAI1 241930Z 17007KT 29/15 A2982 RMK A01 T02850145  RH  042%=      5-min Rain = 0
KAI1 241931Z 20013KT 29/15 A2982 RMK A01 T02870147  RH  043%=      5-min Rain = 0
KAI1 241932Z 19012KT 29/15 A2982 RMK A01 T02900148  RH  042%=      5-min Rain = 0
KAI1 241933Z 18009KT 29/15 A2982 RMK A01 T02900147  RH  042%=      5-min Rain = 0
KAI1 241934Z 19009KT 29/15 A2982 RMK A01 T02890147  RH  042%=      5-min Rain = 0
KAI1 241935Z 20008KT 29/15 A2982 RMK A01 T02900145  RH  041%=      5-min Rain = 0
KAI1 241936Z 19010G15KT 29/15 A2982 RMK A01 T02880146  RH  042%=      5-min Rain = 0
KAI1 241937Z 18007KT 29/14 A2982 RMK A01 T02860144  RH  042%=      5-min Rain = 0
KAI1 241938Z 16006KT 29/15 A2982 RMK A01 T02860145  RH  042%=      5-min Rain = 0
KAI1 241939Z 15010KT 29/15 A2982 RMK A01 T02880147  RH  042%=      5-min Rain = 0
KAI1 241940Z 16011KT 29/15 A2982 RMK A01 T02890148  RH  042%=      5-min Rain = 0
KAI1 241941Z 19013KT 29/14 A2982 RMK A01 T02920142  RH  040%=      5-min Rain = 0
KAI1 241942Z 20010KT 29/14 A2982 RMK A01 T02940141  RH  039%=      5-min Rain = 0
KAI1 241943Z 21009KT 30/15 A2982 RMK A01 T02980146  RH  039%=      5-min Rain = 0
KAI1 241944Z 20006KT 30/15 A2982 RMK A01 T02970145  RH  040%=      5-min Rain = 0
KAI1 241945Z 18009KT 30/15 A2981 RMK A01 T02960147  RH  040%=      5-min Rain = 0
KAI1 241946Z 16008KT 30/15 A2981 RMK A01 T02960154  RH  042%=      5-min Rain = 0
KAI1 241947Z 16008KT 30/16 A2981 RMK A01 T02950159  RH  044%=      5-min Rain = 0
KAI1 241948Z 17008KT 30/16 A2981 RMK A01 T02950164  RH  045%=      5-min Rain = 0
KAI1 241949Z 17008KT 30/16 A2981 RMK A01 T02960157  RH  043%=      5-min Rain = 0
KAI1 241950Z 20008KT 30/16 A2981 RMK A01 T02950156  RH  043%=      5-min Rain = 0
KAI1 241951Z 21011KT 30/16 A2981 RMK A01 T02950156  RH  043%=      5-min Rain = 0
KAI1 241952Z 21009KT 30/15 A2981 RMK A01 T02960152  RH  042%=      5-min Rain = 0
KAI1 241953Z 23008KT 29/15 A2981 RMK A01 T02930148  RH  041%=      5-min Rain = 0
KAI1 241954Z 25004KT 29/15 A2981 RMK A01 T02890147  RH  042%=      5-min Rain = 0
KAI1 241955Z 19007KT 29/15 A2981 RMK A01 T02880148  RH  042%=      5-min Rain = 0
KAI1 241956Z 19006KT 29/15 A2981 RMK A01 T02910151  RH  043%=      5-min Rain = 0
KAI1 241957Z 20011KT 29/15 A2981 RMK A01 T02930154  RH  043%=      5-min Rain = 0
KAI1 241958Z 21010KT 30/16 A2981 RMK A01 T02950157  RH  043%=      5-min Rain = 0
KAI1 241959Z 20010KT 30/16 A2981 RMK A01 T02950159  RH  044%=      5-min Rain = 0
KAI1 242000Z 16015KT 30/16 A2981 RMK A01 T02980160  RH  043%=      5-min Rain = 0
KAI1 242001Z 17012G17KT 30/16 A2981 RMK A01 T02970160  RH  044%=      5-min Rain = 0
KAI1 242002Z 17005KT 29/16 A2981 RMK A01 T02920160  RH  045%=      5-min Rain = 0
KAI1 242003Z 15011G17KT 29/16 A2981 RMK A01 T02910162  RH  046%=      5-min Rain = 0
KAI1 242004Z 17011G16KT 29/16 A2981 RMK A01 T02920162  RH  045%=      5-min Rain = 0
KAI1 242005Z 16009KT 29/16 A2981 RMK A01 T02930162  RH  045%=      5-min Rain = 0
KAI1 242006Z 15014G20KT 29/17 A2981 RMK A01 T02920167  RH  047%=      5-min Rain = 0
KAI1 242007Z 14013KT 29/17 A2981 RMK A01 T02940166  RH  046%=      5-min Rain = 0
KAI1 242008Z 18014KT 30/16 A2981 RMK A01 T02960157  RH  043%=      5-min Rain = 0
KAI1 242009Z 19012KT 30/15 A2981 RMK A01 T03000147  RH  039%=      5-min Rain = 0
KAI1 242010Z 19010KT 30/15 A2981 RMK A01 T03020147  RH  039%=      5-min Rain = 0
KAI1 242011Z 16010KT 30/16 A2981 RMK A01 T03020157  RH  042%=      5-min Rain = 0
KAI1 242012Z 15004KT 30/17 A2981 RMK A01 T03010165  RH  044%=      5-min Rain = 0
KAI1 242013Z 20009KT 30/16 A2981 RMK A01 T03010163  RH  043%=      5-min Rain = 0
KAI1 242014Z 21009G15KT 30/15 A2981 RMK A01 T03000149  RH  040%=      5-min Rain = 0
KAI1 242015Z 18010KT 30/15 A2981 RMK A01 T02970153  RH  042%=      5-min Rain = 0
KAI1 242016Z 17017KT 30/16 A298 RMK A01 T02970162  RH  044%=      5-min Rain = 0
KAI1 242017Z 16014KT 30/16 A298 RMK A01 T02980164  RH  044%=      5-min Rain = 0
KAI1 242018Z 15016G21KT 30/16 A298 RMK A01 T02980164  RH  044%=      5-min Rain = 0
KAI1 242019Z 13014KT 30/16 A2981 RMK A01 T02970164  RH  045%=      5-min Rain = 0
KAI1 242020Z 13014KT 30/16 A298 RMK A01 T02960163  RH  045%=      5-min Rain = 0
KAI1 242021Z 15014KT 30/16 A298 RMK A01 T02950161  RH  045%=      5-min Rain = 0
KAI1 242022Z 16012KT 29/16 A298 RMK A01 T02930162  RH  045%=      5-min Rain = 0
KAI1 242023Z 15012KT 30/16 A298 RMK A01 T02950164  RH  045%=      5-min Rain = 0
KAI1 242024Z 16011G16KT 30/17 A298 RMK A01 T02960165  RH  045%=      5-min Rain = 0
KAI1 242025Z 18011KT 30/16 A298 RMK A01 T02980162  RH  044%=      5-min Rain = 0
KAI1 242026Z 18015G20KT 30/16 A298 RMK A01 T02970163  RH  044%=      5-min Rain = 0
KAI1 242027Z 18016KT 30/16 A298 RMK A01 T02980164  RH  044%=      5-min Rain = 0
KAI1 242028Z 17013KT 30/16 A298 RMK A01 T02980164  RH  044%=      5-min Rain = 0
KAI1 242029Z 16013KT 30/16 A298 RMK A01 T02970164  RH  045%=      5-min Rain = 0
KAI1 242030Z 16015KT 30/16 A298 RMK A01 T02970163  RH  044%=      5-min Rain = 0
KAI1 242031Z 18013KT 30/16 A298 RMK A01 T02970158  RH  043%=      5-min Rain = 0
KAI1 242032Z 17012KT 30/16 A298 RMK A01 T02970158  RH  043%=      5-min Rain = 0
KAI1 242033Z 16012KT 30/16 A298 RMK A01 T02950159  RH  044%=      5-min Rain = 0
KAI1 242034Z 17011KT 30/16 A298 RMK A01 T02970160  RH  044%=      5-min Rain = 0
KAI1 242035Z 17012KT 30/16 A298 RMK A01 T02990159  RH  043%=      5-min Rain = 0
KAI1 242036Z 17011G17KT 30/16 A298 RMK A01 T02990162  RH  043%=      5-min Rain = 0
KAI1 242037Z 17009G16KT 30/16 A298 RMK A01 T03000163  RH  044%=      5-min Rain = 0
KAI1 242038Z 15014KT 30/16 A298 RMK A01 T03010162  RH  043%=      5-min Rain = 0
KAI1 242039Z 15012KT 30/16 A298 RMK A01 T03000163  RH  043%=      5-min Rain = 0
KAI1 242040Z 16011KT 30/16 A298 RMK A01 T02990163  RH  044%=      5-min Rain = 0
KAI1 242041Z 15011KT 30/16 A298 RMK A01 T02980162  RH  044%=      5-min Rain = 0
KAI1 242042Z 14012KT 30/16 A2979 RMK A01 T02980162  RH  044%=      5-min Rain = 0
KAI1 242043Z 15013G19KT 30/16 A2979 RMK A01 T02970162  RH  044%=      5-min Rain = 0
KAI1 242044Z 15013KT 30/16 A2979 RMK A01 T02970160  RH  044%=      5-min Rain = 0
KAI1 242045Z 13011KT 30/16 A2979 RMK A01 T02980160  RH  043%=      5-min Rain = 0
KAI1 242046Z 13009KT 30/16 A2979 RMK A01 T02960160  RH  044%=      5-min Rain = 0
KAI1 242047Z 14011KT 29/16 A2979 RMK A01 T02940159  RH  044%=      5-min Rain = 0
KAI1 242048Z 16014KT 30/16 A2979 RMK A01 T02950159  RH  044%=      5-min Rain = 0
KAI1 242049Z 16013KT 30/16 A2979 RMK A01 T02990159  RH  043%=      5-min Rain = 0
KAI1 242050Z 16011KT 30/16 A2979 RMK A01 T03020158  RH  042%=      5-min Rain = 0
KAI1 242051Z 15009KT 30/16 A2979 RMK A01 T03010156  RH  041%=      5-min Rain = 0
KAI1 242052Z 14012KT 30/16 A2979 RMK A01 T03000155  RH  041%=      5-min Rain = 0
KAI1 242053Z 15009KT 30/16 A2979 RMK A01 T02990155  RH  042%=      5-min Rain = 0
KAI1 242054Z 14011KT 30/16 A2979 RMK A01 T02990155  RH  042%=      5-min Rain = 0
KAI1 242055Z 16013KT 30/15 A2979 RMK A01 T03000154  RH  041%=      5-min Rain = 0
KAI1 242056Z 16009KT 30/15 A2979 RMK A01 T03000154  RH  041%=      5-min Rain = 0
KAI1 242057Z 16011KT 30/16 A2979 RMK A01 T02990155  RH  042%=      5-min Rain = 0
KAI1 242058Z 16011KT 30/15 A2979 RMK A01 T03010154  RH  041%=      5-min Rain = 0
KAI1 242059Z 16008KT 30/15 A2979 RMK A01 T03010152  RH  040%=      5-min Rain = 0
KAI1 242100Z 15007G12KT 30/15 A2978 RMK A01 T03010153  RH  041%=      5-min Rain = 0
KAI1 242101Z 15014KT 30/15 A2978 RMK A01 T03020153  RH  040%=      5-min Rain = 0
KAI1 242102Z 15013KT 30/16 A2978 RMK A01 T03030155  RH  041%=      5-min Rain = 0
KAI1 242103Z 16014KT 30/15 A2978 RMK A01 T03030154  RH  040%=      5-min Rain = 0
KAI1 242104Z 15013KT 30/15 A2978 RMK A01 T03020150  RH  040%=      5-min Rain = 0
KAI1 242105Z 15013KT 30/15 A2978 RMK A01 T03020151  RH  040%=      5-min Rain = 0
KAI1 242106Z 16009KT 30/15 A2978 RMK A01 T03000153  RH  041%=      5-min Rain = 0
KAI1 242107Z 16012G18KT 30/15 A2978 RMK A01 T03000154  RH  041%=      5-min Rain = 0
KAI1 242108Z 18012KT 30/15 A2978 RMK A01 T03010152  RH  040%=      5-min Rain = 0
KAI1 242109Z 19009KT 30/15 A2978 RMK A01 T02990151  RH  041%=      5-min Rain = 0
KAI1 242110Z 16013KT 30/15 A2978 RMK A01 T02970152  RH  041%=      5-min Rain = 0
KAI1 242111Z 14014KT 30/15 A2978 RMK A01 T02980152  RH  041%=      5-min Rain = 0
KAI1 242112Z 15011KT 30/15 A2978 RMK A01 T02990150  RH  040%=      5-min Rain = 0
KAI1 242113Z 17011KT 30/15 A2977 RMK A01 T02980151  RH  041%=      5-min Rain = 0
KAI1 242114Z 15011KT 30/15 A2977 RMK A01 T02990151  RH  041%=      5-min Rain = 0
KAI1 242115Z 16009KT 30/15 A2977 RMK A01 T02980152  RH  041%=      5-min Rain = 0
KAI1 242116Z 16011KT 30/15 A2977 RMK A01 T02980151  RH  041%=      5-min Rain = 0
KAI1 242117Z 18014KT 30/15 A2977 RMK A01 T03010151  RH  040%=      5-min Rain = 0
KAI1 242118Z 18010KT 30/15 A2977 RMK A01 T03020148  RH  039%=      5-min Rain = 0
KAI1 242119Z 16011KT 30/15 A2977 RMK A01 T03000150  RH  040%=      5-min Rain = 0
KAI1 242120Z 16013KT 30/15 A2977 RMK A01 T02990149  RH  040%=      5-min Rain = 0
KAI1 242121Z 16012KT 30/15 A2977 RMK A01 T03010147  RH  039%=      5-min Rain = 0
KAI1 242122Z 14008KT 30/15 A2977 RMK A01 T03000146  RH  039%=      5-min Rain = 0
KAI1 242123Z 14006KT 30/15 A2977 RMK A01 T02990146  RH  039%=      5-min Rain = 0
KAI1 242124Z 15008KT 30/15 A2977 RMK A01 T02970146  RH  040%=      5-min Rain = 0
KAI1 242125Z 16011KT 30/15 A2977 RMK A01 T02970145  RH  040%=      5-min Rain = 0
KAI1 242126Z 16013KT 30/14 A2977 RMK A01 T03000144  RH  039%=      5-min Rain = 0
KAI1 242127Z 16014KT 30/14 A2977 RMK A01 T03030144  RH  038%=      5-min Rain = 0
KAI1 242128Z 16011KT 30/14 A2977 RMK A01 T03030144  RH  038%=      5-min Rain = 0
KAI1 242129Z 15013KT 30/15 A2977 RMK A01 T03030145  RH  038%=      5-min Rain = 0
KAI1 242130Z 15009KT 30/14 A2977 RMK A01 T03040142  RH  037%=      5-min Rain = 0
KAI1 242131Z 15011KT 30/14 A2977 RMK A01 T03040141  RH  037%=      5-min Rain = 0
KAI1 242132Z 15010KT 30/14 A2977 RMK A01 T03030140  RH  037%=      5-min Rain = 0
KAI1 242133Z 17009KT 30/14 A2976 RMK A01 T03030142  RH  037%=      5-min Rain = 0
KAI1 242134Z 15007KT 30/14 A2976 RMK A01 T03040142  RH  037%=      5-min Rain = 0
KAI1 242135Z 16008KT 30/14 A2976 RMK A01 T03040144  RH  038%=      5-min Rain = 0
KAI1 242136Z 17013KT 31/15 A2976 RMK A01 T03050147  RH  038%=      5-min Rain = 0
KAI1 242137Z 17013KT 31/15 A2976 RMK A01 T03050146  RH  038%=      5-min Rain = 0
KAI1 242138Z 16014KT 30/14 A2976 RMK A01 T03030143  RH  038%=      5-min Rain = 0
KAI1 242139Z 15012KT 30/14 A2976 RMK A01 T03010141  RH  038%=      5-min Rain = 0
KAI1 242140Z 15011KT 30/14 A2976 RMK A01 T03010140  RH  037%=      5-min Rain = 0
KAI1 242141Z 14010KT 30/14 A2976 RMK A01 T03010139  RH  037%=      5-min Rain = 0
KAI1 242142Z 14009KT 30/14 A2976 RMK A01 T02990139  RH  038%=      5-min Rain = 0
KAI1 242143Z 15009KT 30/14 A2975 RMK A01 T02990138  RH  037%=      5-min Rain = 0
KAI1 242144Z 14010KT 30/14 A2975 RMK A01 T03010139  RH  037%=      5-min Rain = 0
KAI1 242145Z 13011KT 30/14 A2975 RMK A01 T03020138  RH  037%=      5-min Rain = 0
KAI1 242146Z 14010KT 30/14 A2975 RMK A01 T03020142  RH  038%=      5-min Rain = 0
KAI1 242147Z 17011KT 30/14 A2975 RMK A01 T03040144  RH  038%=      5-min Rain = 0
KAI1 242148Z 17013KT 31/14 A2975 RMK A01 T03060143  RH  037%=      5-min Rain = 0
KAI1 242149Z 16011KT 31/14 A2975 RMK A01 T03060143  RH  037%=      5-min Rain = 0
KAI1 242150Z 18008KT 31/14 A2975 RMK A01 T03050142  RH  037%=      5-min Rain = 0
KAI1 242151Z 17006KT 30/14 A2975 RMK A01 T03040141  RH  037%=      5-min Rain = 0
KAI1 242152Z 16005KT 30/14 A2974 RMK A01 T03020141  RH  037%=      5-min Rain = 0
KAI1 242153Z 14009G14KT 30/14 A2974 RMK A01 T03020141  RH  037%=      5-min Rain = 0
KAI1 242154Z 16012KT 31/14 A2974 RMK A01 T03050141  RH  037%=      5-min Rain = 0
KAI1 242155Z 18011KT 31/14 A2974 RMK A01 T03070139  RH  036%=      5-min Rain = 0
KAI1 242156Z 17011G16KT 30/14 A2974 RMK A01 T03040138  RH  036%=      5-min Rain = 0
KAI1 242157Z 16013KT 30/14 A2974 RMK A01 T03030138  RH  036%=      5-min Rain = 0
KAI1 242158Z 16013KT 30/14 A2974 RMK A01 T03030137  RH  036%=      5-min Rain = 0
KAI1 242159Z 15011KT 30/14 A2974 RMK A01 T03040138  RH  036%=      5-min Rain = 0
KAI1 242200Z 14011KT 31/14 A2974 RMK A01 T03060138  RH  036%=      5-min Rain = 0
KAI1 242201Z 14008KT 31/14 A2974 RMK A01 T03060136  RH  035%=      5-min Rain = 0
KAI1 242202Z 15009KT 31/13 A2974 RMK A01 T03050134  RH  035%=      5-min Rain = 0
KAI1 242203Z 15008G13KT 30/14 A2974 RMK A01 T03040137  RH  036%=      5-min Rain = 0
KAI1 242204Z 14010KT 30/14 A2974 RMK A01 T03040138  RH  036%=      5-min Rain = 0
KAI1 242205Z 14009KT 30/14 A2974 RMK A01 T03040139  RH  037%=      5-min Rain = 0
KAI1 242206Z 16012KT 31/14 A2974 RMK A01 T03050136  RH  036%=      5-min Rain = 0
KAI1 242207Z 17012KT 31/13 A2974 RMK A01 T03070129  RH  034%=      5-min Rain = 0
KAI1 242208Z 18011KT 31/13 A2974 RMK A01 T03080128  RH  033%=      5-min Rain = 0
KAI1 242209Z 19010KT 31/13 A2974 RMK A01 T03060131  RH  034%=      5-min Rain = 0
KAI1 242210Z 19010KT 30/13 A2974 RMK A01 T03020132  RH  035%=      5-min Rain = 0
KAI1 242211Z 20009KT 30/13 A2974 RMK A01 T03010133  RH  036%=      5-min Rain = 0
KAI1 242212Z 20008KT 30/14 A2974 RMK A01 T03010135  RH  036%=      5-min Rain = 0
KAI1 242213Z 21005KT 30/13 A2974 RMK A01 T03020133  RH  036%=      5-min Rain = 0
KAI1 242214Z 23002KT 30/13 A2974 RMK A01 T03020130  RH  035%=      5-min Rain = 0
KAI1 242215Z 15004KT 30/13 A2974 RMK A01 T03000129  RH  035%=      5-min Rain = 0
KAI1 242216Z 15006KT 30/13 A2974 RMK A01 T03000130  RH  035%=      5-min Rain = 0
KAI1 242217Z 16008KT 30/14 A2974 RMK A01 T03020137  RH  036%=      5-min Rain = 0
KAI1 242218Z 16007KT 30/14 A2973 RMK A01 T03030140  RH  037%=      5-min Rain = 0
KAI1 242219Z 16006KT 30/14 A2973 RMK A01 T03040139  RH  037%=      5-min Rain = 0
KAI1 242220Z 17006KT 31/14 A2973 RMK A01 T03050139  RH  036%=      5-min Rain = 0
KAI1 242221Z 14009KT 31/14 A2973 RMK A01 T03070140  RH  036%=      5-min Rain = 0
KAI1 242222Z 15008KT 31/14 A2973 RMK A01 T03090139  RH  035%=      5-min Rain = 0
KAI1 242223Z 15006KT 31/14 A2973 RMK A01 T03090138  RH  035%=      5-min Rain = 0
KAI1 242224Z 15008KT 31/14 A2973 RMK A01 T03090138  RH  035%=      5-min Rain = 0
KAI1 242225Z 15006KT 31/14 A2973 RMK A01 T03080135  RH  035%=      5-min Rain = 0
KAI1 242226Z 14011KT 31/13 A2973 RMK A01 T03080133  RH  034%=      5-min Rain = 0
KAI1 242227Z 15010KT 31/13 A2973 RMK A01 T03070131  RH  034%=      5-min Rain = 0
KAI1 242228Z 18011KT 31/13 A2973 RMK A01 T03060130  RH  034%=      5-min Rain = 0
KAI1 242229Z 18008KT 31/13 A2973 RMK A01 T03060129  RH  034%=      5-min Rain = 0
KAI1 242230Z 19009KT 30/13 A2973 RMK A01 T03040130  RH  034%=      5-min Rain = 0
KAI1 242231Z 17012KT 30/13 A2972 RMK A01 T03040127  RH  034%=      5-min Rain = 0
KAI1 242232Z 16011KT 31/13 A2972 RMK A01 T03070125  RH  033%=      5-min Rain = 0
KAI1 242233Z 17009KT 31/12 A2972 RMK A01 T03080124  RH  032%=      5-min Rain = 0
KAI1 242234Z 15008KT 31/13 A2973 RMK A01 T03070125  RH  033%=      5-min Rain = 0
KAI1 242235Z 15006KT 31/13 A2972 RMK A01 T03080125  RH  033%=      5-min Rain = 0
KAI1 242236Z 13008KT 31/13 A2972 RMK A01 T03080125  RH  033%=      5-min Rain = 0
KAI1 242237Z 15010KT 31/13 A2972 RMK A01 T03080127  RH  033%=      5-min Rain = 0
KAI1 242238Z 15008KT 31/13 A2972 RMK A01 T03080129  RH  033%=      5-min Rain = 0
KAI1 242239Z 14010KT 31/13 A2972 RMK A01 T03090130  RH  033%=      5-min Rain = 0
KAI1 242240Z 14007KT 31/13 A2972 RMK A01 T03090127  RH  033%=      5-min Rain = 0
KAI1 242241Z 14003KT 31/13 A2972 RMK A01 T03090125  RH  032%=      5-min Rain = 0
KAI1 242242Z 12006KT 31/13 A2972 RMK A01 T03080126  RH  033%=      5-min Rain = 0
KAI1 242243Z 13008KT 31/13 A2971 RMK A01 T03060126  RH  033%=      5-min Rain = 0
KAI1 242244Z 11007KT 30/13 A2971 RMK A01 T03040127  RH  034%=      5-min Rain = 0
KAI1 242245Z 11007KT 30/13 A2971 RMK A01 T03030127  RH  034%=      5-min Rain = 0
KAI1 242246Z 14008G15KT 30/13 A2971 RMK A01 T03040125  RH  033%=      5-min Rain = 0
KAI1 242247Z 14013KT 31/12 A2971 RMK A01 T03050123  RH  033%=      5-min Rain = 0
KAI1 242248Z 13012KT 31/12 A2971 RMK A01 T03070123  RH  032%=      5-min Rain = 0
KAI1 242249Z 13010KT 31/12 A2971 RMK A01 T03070123  RH  032%=      5-min Rain = 0
KAI1 242250Z 14009KT 31/12 A2971 RMK A01 T03070123  RH  032%=      5-min Rain = 0
KAI1 242251Z 16006KT 31/12 A2971 RMK A01 T03070123  RH  032%=      5-min Rain = 0
KAI1 242252Z 14005KT 31/12 A2971 RMK A01 T03080121  RH  032%=      5-min Rain = 0
KAI1 242253Z 12006KT 31/12 A2971 RMK A01 T03070121  RH  032%=      5-min Rain = 0
KAI1 242254Z 11006KT 31/12 A297 RMK A01 T03070121  RH  032%=      5-min Rain = 0
KAI1 242255Z 13007KT 31/12 A297 RMK A01 T03070120  RH  032%=      5-min Rain = 0
KAI1 242256Z 12007KT 31/12 A2971 RMK A01 T03080120  RH  032%=      5-min Rain = 0
KAI1 242257Z 09004KT 31/12 A2971 RMK A01 T03060122  RH  032%=      5-min Rain = 0
KAI1 242258Z 08003KT 30/12 A2971 RMK A01 T03030120  RH  032%=      5-min Rain = 0
KAI1 242259Z 11001KT 30/12 A2971 RMK A01 T03010117  RH  032%=      5-min Rain = 0
KAI1 242300Z 14002KT 30/12 A2972 RMK A01 T03010116  RH  032%=      5-min Rain = 0
KAI1 242301Z 16006KT 30/12 A2972 RMK A01 T03010116  RH  032%=      5-min Rain = 0
KAI1 242302Z 18007KT 30/12 A2972 RMK A01 T03010116  RH  032%=      5-min Rain = 0
KAI1 242303Z 18010KT 30/12 A2972 RMK A01 T03010115  RH  032%=      5-min Rain = 0
KAI1 242304Z 18008KT 30/11 A2973 RMK A01 T03000112  RH  031%=      5-min Rain = 0
KAI1 242305Z 19008KT 30/11 A2973 RMK A01 T02990112  RH  031%=      5-min Rain = 0
KAI1 242306Z 18009KT 30/11 A2973 RMK A01 T02990113  RH  032%=      5-min Rain = 0
KAI1 242307Z 17009KT 30/11 A2973 RMK A01 T02990112  RH  031%=      5-min Rain = 0
KAI1 242308Z 16011KT 30/12 A2973 RMK A01 T03000118  RH  033%=      5-min Rain = 0
KAI1 242309Z 15009KT 30/13 A2973 RMK A01 T02990128  RH  035%=      5-min Rain = 0
KAI1 242310Z 15009KT 30/13 A2973 RMK A01 T02970129  RH  036%=      5-min Rain = 0
KAI1 242311Z 15007KT 30/13 A2973 RMK A01 T02960130  RH  036%=      5-min Rain = 0
KAI1 242312Z 17007KT 30/13 A2973 RMK A01 T02950126  RH  035%=      5-min Rain = 0
KAI1 242313Z 18009KT 30/12 A2973 RMK A01 T02950121  RH  034%=      5-min Rain = 0
KAI1 242314Z 18010KT 30/13 A2973 RMK A01 T02950125  RH  035%=      5-min Rain = 0
KAI1 242315Z 17009KT 30/13 A2973 RMK A01 T02950127  RH  036%=      5-min Rain = 0
KAI1 242316Z 16011KT 29/13 A2973 RMK A01 T02940128  RH  036%=      5-min Rain = 0
KAI1 242317Z 16010KT 30/13 A2973 RMK A01 T02950127  RH  036%=      5-min Rain = 0
KAI1 242318Z 16011KT 30/12 A2973 RMK A01 T02950124  RH  035%=      5-min Rain = 0
KAI1 242319Z 15010KT 29/12 A2973 RMK A01 T02940122  RH  035%=      5-min Rain = 0
KAI1 242320Z 16009KT 29/12 A2973 RMK A01 T02930121  RH  035%=      5-min Rain = 0
KAI1 242321Z 16010KT 29/12 A2973 RMK A01 T02930123  RH  035%=      5-min Rain = 0
KAI1 242322Z 16012KT 29/12 A2973 RMK A01 T02930124  RH  035%=      5-min Rain = 0
KAI1 242323Z 17010KT 29/12 A2973 RMK A01 T02920124  RH  035%=      5-min Rain = 0
KAI1 242324Z 17011KT 29/12 A2972 RMK A01 T02910123  RH  035%=      5-min Rain = 0
KAI1 242325Z 17010KT 29/12 A2972 RMK A01 T02910123  RH  035%=      5-min Rain = 0
KAI1 242326Z 16012KT 29/12 A2972 RMK A01 T02910123  RH  036%=      5-min Rain = 0
KAI1 242327Z 16010KT 29/12 A2972 RMK A01 T02900123  RH  036%=      5-min Rain = 0
KAI1 242328Z 16010KT 29/12 A2972 RMK A01 T02900123  RH  036%=      5-min Rain = 0
KAI1 242329Z 17011KT 29/12 A2972 RMK A01 T02890123  RH  036%=      5-min Rain = 0
KAI1 242330Z 17012KT 29/12 A2971 RMK A01 T02880122  RH  036%=      5-min Rain = 0
KAI1 242331Z 17011KT 29/12 A2971 RMK A01 T02880122  RH  036%=      5-min Rain = 0
KAI1 242332Z 17010KT 29/12 A2971 RMK A01 T02880123  RH  036%=      5-min Rain = 0
KAI1 242333Z 17011KT 29/12 A2971 RMK A01 T02880122  RH  036%=      5-min Rain = 0
KAI1 242334Z 17010KT 29/12 A2971 RMK A01 T02870119  RH  035%=      5-min Rain = 0
KAI1 242335Z 17009KT 29/12 A2971 RMK A01 T02870118  RH  035%=      5-min Rain = 0
KAI1 242336Z 17010KT 29/12 A2971 RMK A01 T02870118  RH  035%=      5-min Rain = 0
KAI1 242337Z 18010KT 29/12 A2972 RMK A01 T02870119  RH  035%=      5-min Rain = 0
KAI1 242338Z 18010KT 29/12 A2972 RMK A01 T02870121  RH  036%=      5-min Rain = 0
KAI1 242339Z 19010KT 29/12 A2972 RMK A01 T02860123  RH  036%=      5-min Rain = 0
KAI1 242340Z 19011KT 29/13 A2972 RMK A01 T02850125  RH  037%=      5-min Rain = 0
KAI1 242341Z 19012KT 28/13 A2972 RMK A01 T02840129  RH  038%=      5-min Rain = 0
KAI1 242342Z 19016G23KT 28/13 A2972 RMK A01 T02820131  RH  039%=      5-min Rain = 0
KAI1 242343Z 19019KT 28/10 A2972 RMK A01 T02820098  RH  032%=      5-min Rain = 0
KAI1 242344Z 20019KT 28/07 A2972 RMK A01 T02780072  RH  027%=      5-min Rain = 0
KAI1 242345Z 21020KT 27/06 A2972 RMK A01 T02740063  RH  026%=      5-min Rain = 0
KAI1 242346Z 22020KT 27/06 A2972 RMK A01 T02710055  RH  025%=      5-min Rain = 0
KAI1 242347Z 22017G22KT 27/05 A2972 RMK A01 T02680052  RH  025%=      5-min Rain = 0
KAI1 242348Z 22019KT 27/05 A2972 RMK A01 T02660050  RH  025%=      5-min Rain = 0
KAI1 242349Z 22015KT 26/05 A2972 RMK A01 T02630051  RH  026%=      5-min Rain = 0
KAI1 242350Z 22014KT 26/05 A2972 RMK A01 T02610052  RH  026%=      5-min Rain = 0
KAI1 242351Z 21020G26KT 26/05 A2971 RMK A01 T02600052  RH  026%=      5-min Rain = 0
KAI1 242352Z 22021KT 26/05 A2971 RMK A01 T02590053  RH  027%=      5-min Rain = 0
KAI1 242353Z 22022KT 26/06 A2971 RMK A01 T02570057  RH  028%=      5-min Rain = 0
KAI1 242354Z 22021KT 26/06 A2971 RMK A01 T02550060  RH  029%=      5-min Rain = 0
KAI1 242355Z 22021KT 25/06 A2972 RMK A01 T02520064  RH  030%=      5-min Rain = 0
KAI1 242356Z 22019KT 25/07 A2972 RMK A01 T02490068  RH  031%=      5-min Rain = 0
KAI1 242357Z 21018G25KT 25/07 A2972 RMK A01 T02460073  RH  033%=      5-min Rain = 0
KAI1 242358Z 23016G22KT 25/07 A2972 RMK A01 T02450072  RH  033%=      5-min Rain = 0
KAI1 242359Z 22016KT 24/08 A2972 RMK A01 T02440081  RH  035%=      5-min Rain = 0
KAI1 250000Z 24024G35KT 24/09 A2972 RMK A01 T02390090  RH  039%=      5-min Rain = 0
KAI1 250001Z 25030KT 24/09 A2971 RMK A01 T02350089  RH  039%=      5-min Rain = 0
KAI1 250002Z 25033KT 23/09 A2971 RMK A01 T02300094  RH  042%=      5-min Rain = 0
KAI1 250003Z 25036G42KT 22/09 A2971 RMK A01 T02240092  RH  043%=      5-min Rain = 0
KAI1 250004Z 25036G42KT 22/09 A2971 RMK A01 T02240088  RH  042%=      5-min Rain = 0
KAI1 250005Z 24036KT 22/10 A2971 RMK A01 T02210095  RH  044%=      5-min Rain = 0
KAI1 250006Z 24036G41KT 22/10 A2972 RMK A01 T02150095  RH  046%=      5-min Rain = 0
KAI1 250007Z 25034KT 21/09 A2972 RMK A01 T02120089  RH  045%=      5-min Rain = 0
KAI1 250008Z 25034KT 21/09 A2972 RMK A01 T02130086  RH  044%=      5-min Rain = 0
KAI1 250009Z 24034G41KT 21/09 A2972 RMK A01 T02130091  RH  045%=      5-min Rain = 0
KAI1 250010Z 23034KT 21/09 A2973 RMK A01 T02110093  RH  047%=      5-min Rain = 0
KAI1 250011Z 22031G38KT 21/10 A2973 RMK A01 T02090095  RH  048%=      5-min Rain = 0
KAI1 250012Z 22026KT 20/10 A2973 RMK A01 T02040100  RH  051%=      5-min Rain = 0
KAI1 250013Z 22028G34KT 20/10 A2973 RMK A01 T01990103  RH  054%=      5-min Rain = 0
KAI1 250014Z 23030G42KT 20/10 A2973 RMK A01 T01980099  RH  053%=      5-min Rain = 0
KAI1 250015Z 23029G34KT 20/10 A2973 RMK A01 T01990097  RH  052%=      5-min Rain = 0
KAI1 250016Z 22028G33KT 20/10 A2973 RMK A01 T01990096  RH  051%=      5-min Rain = 0
KAI1 250017Z 24029G35KT 20/10 A2973 RMK A01 T01970103  RH  055%=      5-min Rain = 0.01
KAI1 250018Z 25029G34KT 19/10 A2974 RMK A01 T01940099  RH  054%=      5-min Rain = 0
KAI1 250019Z 24026G33KT 19/10 A2974 RMK A01 T01940101  RH  055%=      5-min Rain = 0
KAI1 250020Z 25031KT 19/10 A2974 RMK A01 T01940103  RH  056%=      5-min Rain = 0
KAI1 250021Z 26033KT 19/10 A2975 RMK A01 T01940101  RH  055%=      5-min Rain = 0
KAI1 250022Z 26034G39KT 20/10 A2975 RMK A01 T01950099  RH  054%=      5-min Rain = 0
KAI1 250023Z 27032G37KT 20/10 A2976 RMK A01 T01960097  RH  053%=      5-min Rain = 0
KAI1 250024Z 26030KT 20/10 A2976 RMK A01 T01960097  RH  053%=      5-min Rain = 0
KAI1 250025Z 26028KT 20/10 A2976 RMK A01 T01980096  RH  052%=      5-min Rain = 0.01
KAI1 250026Z 26028G34KT 20/10 A2977 RMK A01 T01990098  RH  052%=      5-min Rain = 0
KAI1 250027Z 26031G37KT 20/09 A2977 RMK A01 T02000093  RH  050%=      5-min Rain = 0
KAI1 250028Z 26028KT 20/09 A2977 RMK A01 T02030093  RH  049%=      5-min Rain = 0
KAI1 250029Z 26028KT 20/09 A2978 RMK A01 T02040094  RH  049%=      5-min Rain = 0
KAI1 250030Z 25029KT 21/10 A2978 RMK A01 T02050095  RH  049%=      5-min Rain = 0
KAI1 250031Z 25025KT 20/10 A2978 RMK A01 T02030100  RH  052%=      5-min Rain = 0
KAI1 250032Z 25027G33KT 20/11 A2978 RMK A01 T01980105  RH  055%=      5-min Rain = 0
KAI1 250033Z 25026KT 20/11 A2978 RMK A01 T01960105  RH  056%=      5-min Rain = 0
KAI1 250034Z 25029KT 20/10 A2978 RMK A01 T01950103  RH  055%=      5-min Rain = 0
KAI1 250035Z 25025KT 20/10 A2978 RMK A01 T01960102  RH  054%=      5-min Rain = 0
KAI1 250036Z 26022KT 20/11 A2979 RMK A01 T01960106  RH  056%=      5-min Rain = 0
KAI1 250037Z 25024KT 19/11 A2979 RMK A01 T01930107  RH  057%=      5-min Rain = 0
KAI1 250038Z 25025KT 19/11 A2979 RMK A01 T01920106  RH  058%=      5-min Rain = 0
KAI1 250039Z 25024KT 19/11 A2979 RMK A01 T01900109  RH  059%=      5-min Rain = 0
KAI1 250040Z 25023KT 19/11 A2979 RMK A01 T01900109  RH  059%=      5-min Rain = 0
KAI1 250041Z 25023KT 19/11 A2979 RMK A01 T01890110  RH  060%=      5-min Rain = 0
KAI1 250042Z 26023KT 19/11 A2979 RMK A01 T01880107  RH  059%=      5-min Rain = 0
KAI1 250043Z 26022KT 19/10 A2979 RMK A01 T01900104  RH  057%=      5-min Rain = 0.01
KAI1 250044Z 25021KT 19/11 A2979 RMK A01 T01910107  RH  058%=      5-min Rain = 0
KAI1 250045Z 26021KT 19/10 A2979 RMK A01 T01900103  RH  057%=      5-min Rain = 0
KAI1 250046Z 26020KT 19/10 A2979 RMK A01 T01910103  RH  057%=      5-min Rain = 0
KAI1 250047Z 26020KT 19/11 A2979 RMK A01 T01910107  RH  058%=      5-min Rain = 0
KAI1 250048Z 26019KT 19/11 A2979 RMK A01 T01900106  RH  058%=      5-min Rain = 0
KAI1 250049Z 26019KT 19/10 A2979 RMK A01 T01910101  RH  056%=      5-min Rain = 0
KAI1 250050Z 26020KT 20/09 A2979 RMK A01 T01950092  RH  051%=      5-min Rain = 0
KAI1 250051Z 26016KT 20/09 A2979 RMK A01 T02000090  RH  049%=      5-min Rain = 0
KAI1 250052Z 26013KT 20/10 A2978 RMK A01 T02010095  RH  050%=      5-min Rain = 0
KAI1 250053Z 27012KT 20/10 A2978 RMK A01 T01990101  RH  053%=      5-min Rain = 0
KAI1 250054Z 27011KT 20/10 A2978 RMK A01 T01950104  RH  056%=      5-min Rain = 0
KAI1 250055Z 27010KT 19/11 A2978 RMK A01 T01920107  RH  058%=      5-min Rain = 0
KAI1 250056Z 26011KT 19/11 A2978 RMK A01 T01890108  RH  059%=      5-min Rain = 0
KAI1 250057Z 26011KT 19/11 A2977 RMK A01 T01880110  RH  060%=      5-min Rain = 0
KAI1 250058Z 26011KT 19/11 A2977 RMK A01 T01880113  RH  062%=      5-min Rain = 0
KAI1 250059Z 25008KT 19/11 A2977 RMK A01 T01870110  RH  061%=      5-min Rain = 0
KAI1 250100Z 24006KT 19/11 A2977 RMK A01 T01880107  RH  059%=      5-min Rain = 0.01
KAI1 250101Z 25007KT 19/11 A2977 RMK A01 T01900110  RH  060%=      5-min Rain = 0
KAI1 250102Z 23004KT 19/11 A2977 RMK A01 T01900112  RH  060%=      5-min Rain = 0
KAI1 250103Z 21003KT 19/11 A2977 RMK A01 T01900111  RH  060%=      5-min Rain = 0
KAI1 250104Z 20002KT 19/12 A2977 RMK A01 T01890116  RH  062%=      5-min Rain = 0
KAI1 250105Z 17001KT 19/12 A2977 RMK A01 T01880122  RH  065%=      5-min Rain = 0
KAI1 250106Z 18002KT 19/12 A2977 RMK A01 T01880120  RH  065%=      5-min Rain = 0
KAI1 250107Z 16003KT 19/13 A2977 RMK A01 T01870125  RH  067%=      5-min Rain = 0
KAI1 250108Z 14002KT 19/12 A2977 RMK A01 T01870116  RH  064%=      5-min Rain = 0
KAI1 250109Z 12002KT 19/11 A2977 RMK A01 T01880111  RH  061%=      5-min Rain = 0
KAI1 250110Z 11002KT 19/11 A2977 RMK A01 T01910109  RH  059%=      5-min Rain = 0
KAI1 250111Z 10003KT 19/12 A2977 RMK A01 T01920118  RH  062%=      5-min Rain = 0
KAI1 250112Z 09004KT 19/12 A2977 RMK A01 T01920117  RH  062%=      5-min Rain = 0
KAI1 250113Z 08006KT 19/11 A2976 RMK A01 T01930113  RH  060%=      5-min Rain = 0
KAI1 250114Z 07005KT 20/11 A2976 RMK A01 T01950111  RH  059%=      5-min Rain = 0
KAI1 250115Z 07006KT 20/12 A2976 RMK A01 T01950121  RH  062%=      5-min Rain = 0
KAI1 250116Z 07006KT 20/13 A2976 RMK A01 T01960126  RH  064%=      5-min Rain = 0
KAI1 250117Z 06007KT 19/14 A2976 RMK A01 T01940137  RH  069%=      5-min Rain = 0
KAI1 250118Z 06008KT 19/13 A2976 RMK A01 T01910130  RH  068%=      5-min Rain = 0
KAI1 250119Z 06010KT 19/13 A2976 RMK A01 T01900127  RH  067%=      5-min Rain = 0
KAI1 250120Z 06011KT 19/12 A2975 RMK A01 T01900122  RH  065%=      5-min Rain = 0
KAI1 250121Z 06012KT 19/11 A2975 RMK A01 T01920110  RH  059%=      5-min Rain = 0
KAI1 250122Z 06012KT 20/11 A2975 RMK A01 T01950110  RH  058%=      5-min Rain = 0
KAI1 250123Z 07012KT 20/11 A2974 RMK A01 T01980105  RH  055%=      5-min Rain = 0.01
KAI1 250124Z 07013KT 20/11 A2974 RMK A01 T02000107  RH  055%=      5-min Rain = 0
KAI1 250125Z 07013KT 20/11 A2974 RMK A01 T02000108  RH  055%=      5-min Rain = 0
KAI1 250126Z 06011KT 20/11 A2974 RMK A01 T02000107  RH  055%=      5-min Rain = 0
KAI1 250127Z 04008KT 20/10 A2974 RMK A01 T02010099  RH  052%=      5-min Rain = 0
KAI1 250128Z 03003KT 21/08 A2974 RMK A01 T02050084  RH  046%=      5-min Rain = 0
KAI1 250129Z 04010G17KT 21/09 A2973 RMK A01 T02100086  RH  045%=      5-min Rain = 0
KAI1 250130Z 03020G25KT 22/09 A2972 RMK A01 T02150090  RH  045%=      5-min Rain = 0
KAI1 250131Z 03022KT 22/09 A2972 RMK A01 T02160090  RH  044%=      5-min Rain = 0
KAI1 250132Z 04022G28KT 22/09 A2971 RMK A01 T02160091  RH  045%=      5-min Rain = 0.01
KAI1 250133Z 03019G24KT 22/07 A2971 RMK A01 T02200072  RH  038%=      5-min Rain = 0
KAI1 250134Z 03018KT 23/08 A2971 RMK A01 T02260080  RH  039%=      5-min Rain = 0
KAI1 250135Z 02020G27KT 23/08 A297 RMK A01 T02260078  RH  038%=      5-min Rain = 0
KAI1 250136Z 02021G30KT 23/07 A2969 RMK A01 T02290070  RH  036%=      5-min Rain = 0
KAI1 250137Z 03033KT 23/09 A2968 RMK A01 T02280088  RH  041%=      5-min Rain = 0
KAI1 250138Z 03026G31KT 22/09 A2968 RMK A01 T02170090  RH  044%=      5-min Rain = 0
KAI1 250139Z 03024G29KT 21/09 A2967 RMK A01 T02130092  RH  046%=      5-min Rain = 0
KAI1 250140Z 03022G32KT 21/10 A2967 RMK A01 T02110096  RH  048%=      5-min Rain = 0
KAI1 250141Z 03022G32KT 21/08 A2968 RMK A01 T02120081  RH  043%=      5-min Rain = 0
KAI1 250142Z 04025KT 22/09 A2968 RMK A01 T02180088  RH  043%=      5-min Rain = 0
KAI1 250143Z 04023KT 22/09 A2968 RMK A01 T02160091  RH  045%=      5-min Rain = 0
KAI1 250144Z 04021KT 21/09 A2968 RMK A01 T02130094  RH  046%=      5-min Rain = 0
KAI1 250145Z 04021G26KT 21/10 A2968 RMK A01 T02110096  RH  048%=      5-min Rain = 0
KAI1 250146Z 05023KT 21/09 A2968 RMK A01 T02100094  RH  047%=      5-min Rain = 0
KAI1 250147Z 05022KT 21/09 A2967 RMK A01 T02100092  RH  047%=      5-min Rain = 0
KAI1 250148Z 04021G26KT 21/09 A2967 RMK A01 T02110091  RH  046%=      5-min Rain = 0
KAI1 250149Z 04020G26KT 22/09 A2967 RMK A01 T02150085  RH  043%=      5-min Rain = 0
KAI1 250150Z 05024G29KT 22/09 A2967 RMK A01 T02170086  RH  043%=      5-min Rain = 0
KAI1 250151Z 05021KT 22/09 A2966 RMK A01 T02170090  RH  044%=      5-min Rain = 0
KAI1 250152Z 05020G26KT 21/09 A2966 RMK A01 T02140091  RH  045%=      5-min Rain = 0
KAI1 250153Z 05019G25KT 21/10 A2966 RMK A01 T02100095  RH  048%=      5-min Rain = 0
KAI1 250154Z 05022KT 21/09 A2967 RMK A01 T02070094  RH  048%=      5-min Rain = 0
KAI1 250155Z 05019KT 21/10 A2967 RMK A01 T02060095  RH  049%=      5-min Rain = 0
KAI1 250156Z 05020KT 20/10 A2967 RMK A01 T02040098  RH  050%=      5-min Rain = 0
KAI1 250157Z 05020KT 20/10 A2967 RMK A01 T02030098  RH  051%=      5-min Rain = 0
KAI1 250158Z 05020KT 20/09 A2967 RMK A01 T02040094  RH  049%=      5-min Rain = 0
KAI1 250159Z 05019KT 21/09 A2968 RMK A01 T02060093  RH  048%=      5-min Rain = 0
KAI1 250200Z 05020KT 21/09 A2968 RMK A01 T02070090  RH  047%=      5-min Rain = 0
KAI1 250201Z 06017KT 21/09 A2968 RMK A01 T02090092  RH  047%=      5-min Rain = 0
KAI1 250202Z 06018KT 21/10 A2968 RMK A01 T02080096  RH  049%=      5-min Rain = 0
KAI1 250203Z 06017KT 21/10 A2968 RMK A01 T02050096  RH  049%=      5-min Rain = 0
KAI1 250204Z 06018KT 21/10 A2969 RMK A01 T02050095  RH  049%=      5-min Rain = 0
KAI1 250205Z 06015KT 20/10 A2969 RMK A01 T02040096  RH  050%=      5-min Rain = 0
KAI1 250206Z 06015KT 20/10 A2969 RMK A01 T02040097  RH  050%=      5-min Rain = 0
KAI1 250207Z 07017KT 20/10 A2969 RMK A01 T02030099  RH  051%=      5-min Rain = 0
KAI1 250208Z 06018KT 20/10 A2969 RMK A01 T02020098  RH  051%=      5-min Rain = 0
KAI1 250209Z 06017KT 20/10 A2969 RMK A01 T02020099  RH  051%=      5-min Rain = 0
KAI1 250210Z 07018KT 20/10 A2969 RMK A01 T02010098  RH  051%=      5-min Rain = 0
KAI1 250211Z 07016KT 20/10 A2969 RMK A01 T02020096  RH  050%=      5-min Rain = 0
KAI1 250212Z 07015KT 20/10 A2969 RMK A01 T02030098  RH  051%=      5-min Rain = 0
KAI1 250213Z 07016KT 20/10 A2969 RMK A01 T02030098  RH  051%=      5-min Rain = 0
KAI1 250214Z 07016KT 20/10 A2969 RMK A01 T02030096  RH  050%=      5-min Rain = 0
KAI1 250215Z 07015KT 20/10 A2969 RMK A01 T02040097  RH  050%=      5-min Rain = 0
KAI1 250216Z 07014KT 20/10 A2969 RMK A01 T02030102  RH  052%=      5-min Rain = 0
KAI1 250217Z 07012KT 20/10 A2969 RMK A01 T02020103  RH  053%=      5-min Rain = 0
KAI1 250218Z 07013KT 20/10 A2969 RMK A01 T02000103  RH  053%=      5-min Rain = 0
KAI1 250219Z 08013KT 20/10 A2969 RMK A01 T02000102  RH  053%=      5-min Rain = 0
KAI1 250220Z 07012KT 20/10 A2969 RMK A01 T02000104  RH  054%=      5-min Rain = 0
KAI1 250221Z 07011KT 20/11 A2969 RMK A01 T01980107  RH  055%=      5-min Rain = 0
KAI1 250222Z 07011KT 20/11 A2969 RMK A01 T01970107  RH  056%=      5-min Rain = 0
KAI1 250223Z 07010KT 20/11 A2969 RMK A01 T01960109  RH  057%=      5-min Rain = 0
KAI1 250224Z 07011KT 20/11 A2969 RMK A01 T01950108  RH  057%=      5-min Rain = 0
KAI1 250225Z 07012KT 20/11 A2969 RMK A01 T01960106  RH  056%=      5-min Rain = 0
KAI1 250226Z 08012KT 20/11 A2969 RMK A01 T01960106  RH  056%=      5-min Rain = 0
KAI1 250227Z 08012KT 20/11 A2969 RMK A01 T01970105  RH  055%=      5-min Rain = 0
KAI1 250228Z 09010KT 20/10 A2969 RMK A01 T01970104  RH  055%=      5-min Rain = 0
KAI1 250229Z 10009KT 20/11 A297 RMK A01 T01980108  RH  056%=      5-min Rain = 0
KAI1 250230Z 11009KT 20/11 A297 RMK A01 T01960114  RH  059%=      5-min Rain = 0
KAI1 250231Z 11010KT 19/12 A297 RMK A01 T01930118  RH  062%=      5-min Rain = 0
KAI1 250232Z 11010KT 19/12 A297 RMK A01 T01900119  RH  063%=      5-min Rain = 0
KAI1 250233Z 10010KT 19/12 A297 RMK A01 T01880117  RH  063%=      5-min Rain = 0
KAI1 250234Z 10012KT 19/12 A2971 RMK A01 T01880116  RH  063%=      5-min Rain = 0
KAI1 250235Z 10011KT 19/12 A2971 RMK A01 T01880115  RH  063%=      5-min Rain = 0
KAI1 250236Z 09011KT 19/12 A2971 RMK A01 T01870118  RH  064%=      5-min Rain = 0
KAI1 250237Z 09011KT 19/12 A2971 RMK A01 T01870118  RH  064%=      5-min Rain = 0
KAI1 250238Z 09011KT 19/12 A2971 RMK A01 T01860117  RH  064%=      5-min Rain = 0
KAI1 250239Z 09011KT 19/12 A2971 RMK A01 T01860116  RH  064%=      5-min Rain = 0
KAI1 250240Z 10010KT 19/12 A2971 RMK A01 T01860116  RH  064%=      5-min Rain = 0
KAI1 250241Z 10011KT 19/12 A2971 RMK A01 T01860116  RH  064%=      5-min Rain = 0
KAI1 250242Z 10011KT 19/12 A2971 RMK A01 T01860116  RH  064%=      5-min Rain = 0
KAI1 250243Z 10011KT 19/12 A2971 RMK A01 T01860117  RH  064%=      5-min Rain = 0
KAI1 250244Z 10011KT 19/12 A2971 RMK A01 T01860118  RH  064%=      5-min Rain = 0
KAI1 250245Z 10011KT 19/12 A2971 RMK A01 T01870119  RH  065%=      5-min Rain = 0
KAI1 250246Z 10011KT 19/12 A2971 RMK A01 T01870120  RH  065%=      5-min Rain = 0
KAI1 250247Z 10012KT 19/12 A2971 RMK A01 T01870120  RH  065%=      5-min Rain = 0
KAI1 250248Z 11011KT 19/12 A2971 RMK A01 T01860119  RH  065%=      5-min Rain = 0
KAI1 250249Z 13012KT 19/12 A2972 RMK A01 T01860119  RH  065%=      5-min Rain = 0
KAI1 250250Z 15015KT 19/12 A2972 RMK A01 T01860122  RH  066%=      5-min Rain = 0
KAI1 250251Z 15013KT 19/13 A2972 RMK A01 T01860125  RH  068%=      5-min Rain = 0
KAI1 250252Z 15016KT 19/12 A2972 RMK A01 T01850124  RH  067%=      5-min Rain = 0
KAI1 250253Z 15015KT 18/12 A2972 RMK A01 T01840123  RH  067%=      5-min Rain = 0
KAI1 250254Z 15013KT 18/12 A2972 RMK A01 T01840122  RH  067%=      5-min Rain = 0
KAI1 250255Z 13011KT 18/12 A2972 RMK A01 T01830122  RH  067%=      5-min Rain = 0
KAI1 250256Z 12011KT 18/12 A2971 RMK A01 T01840120  RH  066%=      5-min Rain = 0
KAI1 250257Z 12014KT 19/11 A2971 RMK A01 T01850110  RH  062%=      5-min Rain = 0
KAI1 250258Z 11015KT 19/11 A2971 RMK A01 T01900108  RH  059%=      5-min Rain = 0
KAI1 250259Z 11016KT 19/11 A2971 RMK A01 T01940106  RH  057%=      5-min Rain = 0
KAI1 250300Z 11016KT 20/11 A2971 RMK A01 T01960108  RH  057%=      5-min Rain = 0
KAI1 250301Z 11017KT 20/11 A2971 RMK A01 T01960108  RH  057%=      5-min Rain = 0
KAI1 250302Z 11017KT 20/11 A2971 RMK A01 T01960109  RH  057%=      5-min Rain = 0
KAI1 250303Z 12020KT 20/11 A2971 RMK A01 T01960109  RH  057%=      5-min Rain = 0
KAI1 250304Z 12016G21KT 20/11 A2971 RMK A01 T01960109  RH  057%=      5-min Rain = 0
KAI1 250305Z 11016KT 20/11 A2971 RMK A01 T01960112  RH  058%=      5-min Rain = 0
KAI1 250306Z 11017KT 19/11 A2971 RMK A01 T01940114  RH  060%=      5-min Rain = 0
KAI1 250307Z 11018KT 19/11 A2971 RMK A01 T01920113  RH  060%=      5-min Rain = 0
KAI1 250308Z 09017KT 19/11 A297 RMK A01 T01910113  RH  061%=      5-min Rain = 0
KAI1 250309Z 09016KT 19/11 A297 RMK A01 T01900113  RH  061%=      5-min Rain = 0
KAI1 250310Z 09017KT 19/11 A297 RMK A01 T01900112  RH  061%=      5-min Rain = 0
KAI1 250311Z 09017KT 19/11 A297 RMK A01 T01910105  RH  057%=      5-min Rain = 0
KAI1 250312Z 10016KT 19/11 A297 RMK A01 T01940105  RH  056%=      5-min Rain = 0
KAI1 250313Z 10016KT 19/11 A297 RMK A01 T01940109  RH  058%=      5-min Rain = 0
KAI1 250314Z 11015KT 19/11 A297 RMK A01 T01920112  RH  060%=      5-min Rain = 0
KAI1 250315Z 12015KT 19/11 A297 RMK A01 T01900113  RH  061%=      5-min Rain = 0
KAI1 250316Z 12014KT 19/12 A297 RMK A01 T01880116  RH  063%=      5-min Rain = 0
KAI1 250317Z 12015KT 19/12 A2971 RMK A01 T01860117  RH  064%=      5-min Rain = 0
KAI1 250318Z 13013KT 18/12 A2971 RMK A01 T01840119  RH  066%=      5-min Rain = 0
KAI1 250319Z 14013KT 18/12 A2971 RMK A01 T01820119  RH  067%=      5-min Rain = 0
KAI1 250320Z 13015KT 18/12 A2971 RMK A01 T01820119  RH  067%=      5-min Rain = 0
KAI1 250321Z 13014KT 18/12 A2971 RMK A01 T01820121  RH  068%=      5-min Rain = 0
KAI1 250322Z 13015KT 18/12 A2971 RMK A01 T01810120  RH  068%=      5-min Rain = 0
KAI1 250323Z 14015KT 18/12 A2971 RMK A01 T01800121  RH  068%=      5-min Rain = 0
KAI1 250324Z 14014KT 18/12 A2971 RMK A01 T01800120  RH  068%=      5-min Rain = 0
KAI1 250325Z 14014KT 18/12 A2971 RMK A01 T01800122  RH  069%=      5-min Rain = 0
KAI1 250326Z 13014KT 18/12 A2971 RMK A01 T01790122  RH  069%=      5-min Rain = 0
KAI1 250327Z 13013KT 18/12 A2971 RMK A01 T01780123  RH  070%=      5-min Rain = 0
KAI1 250328Z 13015KT 18/12 A2972 RMK A01 T01770122  RH  070%=      5-min Rain = 0
KAI1 250329Z 13015KT 18/12 A2972 RMK A01 T01770122  RH  070%=      5-min Rain = 0
KAI1 250330Z 13015KT 18/12 A2972 RMK A01 T01770121  RH  070%=      5-min Rain = 0
KAI1 250331Z 12015KT 18/12 A2972 RMK A01 T01780116  RH  067%=      5-min Rain = 0
KAI1 250332Z 12014KT 18/12 A2972 RMK A01 T01800117  RH  067%=      5-min Rain = 0
KAI1 250333Z 12015KT 18/12 A2972 RMK A01 T01810117  RH  066%=      5-min Rain = 0
KAI1 250334Z 12012KT 18/12 A2972 RMK A01 T01810119  RH  067%=      5-min Rain = 0
KAI1 250335Z 12011KT 18/12 A2972 RMK A01 T01800121  RH  068%=      5-min Rain = 0
KAI1 250336Z 12012KT 18/12 A2972 RMK A01 T01790119  RH  068%=      5-min Rain = 0
KAI1 250337Z 12013G19KT 18/12 A2972 RMK A01 T01790118  RH  067%=      5-min Rain = 0
KAI1 250338Z 11014G19KT 18/12 A2973 RMK A01 T01800116  RH  066%=      5-min Rain = 0
KAI1 250339Z 11012KT 18/12 A2973 RMK A01 T01810119  RH  067%=      5-min Rain = 0
KAI1 250340Z 11014KT 18/12 A2973 RMK A01 T01810117  RH  066%=      5-min Rain = 0
KAI1 250341Z 11015KT 18/11 A2973 RMK A01 T01810114  RH  065%=      5-min Rain = 0
KAI1 250342Z 11015KT 18/11 A2973 RMK A01 T01830113  RH  064%=      5-min Rain = 0
KAI1 250343Z 11015KT 18/11 A2973 RMK A01 T01840113  RH  063%=      5-min Rain = 0
KAI1 250344Z 11021G26KT 19/11 A2973 RMK A01 T01850112  RH  062%=      5-min Rain = 0
KAI1 250345Z 10020KT 19/11 A2973 RMK A01 T01860109  RH  061%=      5-min Rain = 0
KAI1 250346Z 10018KT 19/11 A2973 RMK A01 T01870111  RH  061%=      5-min Rain = 0
KAI1 250347Z 10017KT 19/11 A2973 RMK A01 T01860113  RH  062%=      5-min Rain = 0
KAI1 250348Z 10016KT 19/11 A2973 RMK A01 T01850113  RH  063%=      5-min Rain = 0
KAI1 250349Z 10015KT 18/12 A2973 RMK A01 T01840115  RH  064%=      5-min Rain = 0
KAI1 250350Z 10018G25KT 18/11 A2973 RMK A01 T01830114  RH  064%=      5-min Rain = 0
KAI1 250351Z 10019KT 18/11 A2973 RMK A01 T01830111  RH  063%=      5-min Rain = 0
KAI1 250352Z 10019KT 18/11 A2973 RMK A01 T01840114  RH  064%=      5-min Rain = 0
KAI1 250353Z 10017KT 18/11 A2974 RMK A01 T01830114  RH  064%=      5-min Rain = 0
KAI1 250354Z 10018KT 18/12 A2974 RMK A01 T01820115  RH  065%=      5-min Rain = 0
KAI1 250355Z 10016KT 18/12 A2974 RMK A01 T01810116  RH  066%=      5-min Rain = 0
KAI1 250356Z 10016KT 18/12 A2974 RMK A01 T01800117  RH  067%=      5-min Rain = 0
KAI1 250357Z 11016G21KT 18/12 A2974 RMK A01 T01790118  RH  068%=      5-min Rain = 0
KAI1 250358Z 10017KT 18/11 A2974 RMK A01 T01780114  RH  066%=      5-min Rain = 0
KAI1 250359Z 10015KT 18/12 A2974 RMK A01 T01790117  RH  067%=      5-min Rain = 0
KAI1 250400Z 10017G22KT 18/12 A2974 RMK A01 T01780118  RH  068%=      5-min Rain = 0
KAI1 250401Z 10016KT 18/12 A2974 RMK A01 T01770116  RH  067%=      5-min Rain = 0
KAI1 250402Z 10016KT 18/12 A2974 RMK A01 T01770117  RH  068%=      5-min Rain = 0
KAI1 250403Z 10016KT 18/12 A2974 RMK A01 T01760119  RH  069%=      5-min Rain = 0
KAI1 250404Z 11017KT 18/12 A2974 RMK A01 T01750118  RH  069%=      5-min Rain = 0
KAI1 250405Z 11018KT 18/12 A2974 RMK A01 T01750118  RH  069%=      5-min Rain = 0
KAI1 250406Z 11018G24KT 18/12 A2974 RMK A01 T01750117  RH  069%=      5-min Rain = 0
KAI1 250407Z 11019KT 18/12 A2974 RMK A01 T01750117  RH  069%=      5-min Rain = 0
KAI1 250408Z 10018KT 17/12 A2974 RMK A01 T01740118  RH  070%=      5-min Rain = 0
KAI1 250409Z 11018KT 17/12 A2974 RMK A01 T01730119  RH  070%=      5-min Rain = 0
KAI1 250410Z 11018G24KT 17/12 A2974 RMK A01 T01730119  RH  071%=      5-min Rain = 0
KAI1 250411Z 11019KT 17/12 A2974 RMK A01 T01720119  RH  071%=      5-min Rain = 0
KAI1 250412Z 11018KT 17/12 A2974 RMK A01 T01720119  RH  071%=      5-min Rain = 0
KAI1 250413Z 11020KT 17/12 A2974 RMK A01 T01710119  RH  071%=      5-min Rain = 0
KAI1 250414Z 11017KT 17/12 A2974 RMK A01 T01710120  RH  072%=      5-min Rain = 0
KAI1 250415Z 11019KT 17/12 A2974 RMK A01 T01700120  RH  072%=      5-min Rain = 0
KAI1 250416Z 11019KT 17/12 A2974 RMK A01 T01700120  RH  072%=      5-min Rain = 0
KAI1 250417Z 11018KT 17/12 A2974 RMK A01 T01690120  RH  073%=      5-min Rain = 0
KAI1 250418Z 11018KT 17/12 A2974 RMK A01 T01680121  RH  074%=      5-min Rain = 0
KAI1 250419Z 11017KT 17/12 A2974 RMK A01 T01670121  RH  074%=      5-min Rain = 0
KAI1 250420Z 11019KT 17/12 A2974 RMK A01 T01670121  RH  074%=      5-min Rain = 0
KAI1 250421Z 10020G25KT 17/12 A2974 RMK A01 T01670121  RH  074%=      5-min Rain = 0
KAI1 250422Z 10018KT 17/12 A2974 RMK A01 T01670121  RH  074%=      5-min Rain = 0
KAI1 250423Z 10018KT 17/12 A2974 RMK A01 T01660121  RH  075%=      5-min Rain = 0
KAI1 250424Z 10019KT 17/12 A2974 RMK A01 T01660121  RH  075%=      5-min Rain = 0
KAI1 250425Z 10016KT 17/12 A2974 RMK A01 T01660122  RH  075%=      5-min Rain = 0
KAI1 250426Z 11014KT 17/12 A2974 RMK A01 T01650122  RH  076%=      5-min Rain = 0
KAI1 250427Z 11013KT 16/12 A2974 RMK A01 T01640123  RH  077%=      5-min Rain = 0
KAI1 250428Z 11015KT 16/12 A2974 RMK A01 T01640123  RH  077%=      5-min Rain = 0
KAI1 250429Z 11020G25KT 16/12 A2975 RMK A01 T01640123  RH  077%=      5-min Rain = 0
KAI1 250430Z 11015KT 16/12 A2975 RMK A01 T01640123  RH  077%=      5-min Rain = 0
KAI1 250431Z 11018KT 16/12 A2975 RMK A01 T01630124  RH  077%=      5-min Rain = 0
KAI1 250432Z 11017KT 16/12 A2975 RMK A01 T01620124  RH  078%=      5-min Rain = 0
KAI1 250433Z 11016KT 16/13 A2975 RMK A01 T01620125  RH  079%=      5-min Rain = 0
KAI1 250434Z 11016KT 16/13 A2975 RMK A01 T01610125  RH  079%=      5-min Rain = 0
KAI1 250435Z 11018KT 16/13 A2976 RMK A01 T01600125  RH  079%=      5-min Rain = 0
KAI1 250436Z 11016G21KT 16/13 A2976 RMK A01 T01600126  RH  080%=      5-min Rain = 0
KAI1 250437Z 10019G24KT 16/13 A2976 RMK A01 T01590126  RH  080%=      5-min Rain = 0
KAI1 250438Z 10020KT 16/13 A2976 RMK A01 T01590125  RH  080%=      5-min Rain = 0
KAI1 250439Z 10020KT 16/13 A2976 RMK A01 T01590125  RH  080%=      5-min Rain = 0
KAI1 250440Z 10018KT 16/13 A2976 RMK A01 T01590125  RH  080%=      5-min Rain = 0
KAI1 250441Z 10020KT 16/13 A2976 RMK A01 T01590125  RH  080%=      5-min Rain = 0
KAI1 250442Z 11020KT 16/13 A2976 RMK A01 T01590125  RH  080%=      5-min Rain = 0
KAI1 250443Z 10020KT 16/13 A2976 RMK A01 T01580125  RH  081%=      5-min Rain = 0
KAI1 250444Z 11019KT 16/13 A2976 RMK A01 T01580126  RH  081%=      5-min Rain = 0
KAI1 250445Z 11019G25KT 16/13 A2976 RMK A01 T01570127  RH  082%=      5-min Rain = 0
KAI1 250446Z 11021G27KT 16/13 A2977 RMK A01 T01570127  RH  082%=      5-min Rain = 0
KAI1 250447Z 11022G29KT 16/13 A2977 RMK A01 T01560126  RH  082%=      5-min Rain = 0
KAI1 250448Z 11018KT 16/13 A2977 RMK A01 T01560126  RH  083%=      5-min Rain = 0
KAI1 250449Z 11018G23KT 16/13 A2977 RMK A01 T01550127  RH  083%=      5-min Rain = 0
KAI1 250450Z 11016KT 16/13 A2977 RMK A01 T01550128  RH  084%=      5-min Rain = 0
KAI1 250451Z 11019G24KT 15/13 A2977 RMK A01 T01540127  RH  084%=      5-min Rain = 0
KAI1 250452Z 11018KT 15/13 A2978 RMK A01 T01540127  RH  084%=      5-min Rain = 0
KAI1 250453Z 11018KT 15/13 A2978 RMK A01 T01540128  RH  085%=      5-min Rain = 0
KAI1 250454Z 11019G24KT 15/13 A2978 RMK A01 T01530127  RH  084%=      5-min Rain = 0
KAI1 250455Z 11016G22KT 15/13 A2978 RMK A01 T01530126  RH  084%=      5-min Rain = 0
KAI1 250456Z 11020KT 15/13 A2978 RMK A01 T01530126  RH  084%=      5-min Rain = 0
KAI1 250457Z 12018KT 15/13 A2978 RMK A01 T01530126  RH  084%=      5-min Rain = 0
KAI1 250458Z 12018KT 15/13 A2978 RMK A01 T01530127  RH  084%=      5-min Rain = 0
KAI1 250459Z 12016KT 15/13 A2978 RMK A01 T01530128  RH  085%=      5-min Rain = 0

Page generated in 0.1082 seconds.